<?xml version="1.0" encoding="UTF-8" standalone="no" ?>
<gpx xmlns="http://www.topografix.com/GPX/1/1" xmlns:xsi="http://www.w3.org/2001/XMLSchema-instance" xsi:schemaLocation="http://www.topografix.com/GPX/1/1 http://www.topografix.com/GPX/1/1/gpx.xsd" version="1.1" creator="VisuGPX - https://www.visugpx.com">
  <metadata>
    <name>sortie pedestre baneuil le 16/10/2011</name>
    <desc><![CDATA[rando pedestre 18 kms baneuil]]></desc>
  </metadata>
  <trk>
    <name><![CDATA[Baneuil16_10_2011_history on GPSies.com]]></name>
    <trkseg>
      <trkpt lat="44.85155" lon="0.68883">
        <ele>138.56726</ele>
        <time>2011-10-16T07:05:33Z</time>
      </trkpt>
      <trkpt lat="44.85165" lon="0.6889">
        <ele>140.00915</ele>
        <time>2011-10-16T07:05:38Z</time>
      </trkpt>
      <trkpt lat="44.85167" lon="0.68892">
        <ele>139.52844</ele>
        <time>2011-10-16T07:05:39Z</time>
      </trkpt>
      <trkpt lat="44.85182" lon="0.68901">
        <ele>139.52844</ele>
        <time>2011-10-16T07:05:46Z</time>
      </trkpt>
      <trkpt lat="44.85185" lon="0.68905">
        <ele>139.04785</ele>
        <time>2011-10-16T07:05:48Z</time>
      </trkpt>
      <trkpt lat="44.85193" lon="0.6891">
        <ele>138.56726</ele>
        <time>2011-10-16T07:05:54Z</time>
      </trkpt>
      <trkpt lat="44.85203" lon="0.68917">
        <ele>138.08654</ele>
        <time>2011-10-16T07:05:58Z</time>
      </trkpt>
      <trkpt lat="44.8522" lon="0.68926">
        <ele>137.60583</ele>
        <time>2011-10-16T07:06:05Z</time>
      </trkpt>
      <trkpt lat="44.85226" lon="0.68928">
        <ele>136.64465</ele>
        <time>2011-10-16T07:06:09Z</time>
      </trkpt>
      <trkpt lat="44.85237" lon="0.6893">
        <ele>136.64465</ele>
        <time>2011-10-16T07:06:13Z</time>
      </trkpt>
      <trkpt lat="44.85246" lon="0.68933">
        <ele>139.52844</ele>
        <time>2011-10-16T07:06:17Z</time>
      </trkpt>
      <trkpt lat="44.85251" lon="0.68935">
        <ele>140.97045</ele>
        <time>2011-10-16T07:06:19Z</time>
      </trkpt>
      <trkpt lat="44.85257" lon="0.68933">
        <ele>143.37365</ele>
        <time>2011-10-16T07:06:23Z</time>
      </trkpt>
      <trkpt lat="44.85262" lon="0.68921">
        <ele>144.81579</ele>
        <time>2011-10-16T07:06:28Z</time>
      </trkpt>
      <trkpt lat="44.85261" lon="0.68906">
        <ele>145.77709</ele>
        <time>2011-10-16T07:06:32Z</time>
      </trkpt>
      <trkpt lat="44.8526" lon="0.68893">
        <ele>145.29638</ele>
        <time>2011-10-16T07:06:36Z</time>
      </trkpt>
      <trkpt lat="44.85264" lon="0.68876">
        <ele>144.81579</ele>
        <time>2011-10-16T07:06:42Z</time>
      </trkpt>
      <trkpt lat="44.85263" lon="0.68869">
        <ele>144.3352</ele>
        <time>2011-10-16T07:06:44Z</time>
      </trkpt>
      <trkpt lat="44.85266" lon="0.68854">
        <ele>146.7384</ele>
        <time>2011-10-16T07:06:49Z</time>
      </trkpt>
      <trkpt lat="44.85265" lon="0.68834">
        <ele>146.25781</ele>
        <time>2011-10-16T07:06:54Z</time>
      </trkpt>
      <trkpt lat="44.85266" lon="0.6882">
        <ele>146.25781</ele>
        <time>2011-10-16T07:06:58Z</time>
      </trkpt>
      <trkpt lat="44.85265" lon="0.68804">
        <ele>144.81579</ele>
        <time>2011-10-16T07:07:02Z</time>
      </trkpt>
      <trkpt lat="44.85263" lon="0.68799">
        <ele>144.3352</ele>
        <time>2011-10-16T07:07:03Z</time>
      </trkpt>
      <trkpt lat="44.8526" lon="0.6879">
        <ele>144.3352</ele>
        <time>2011-10-16T07:07:05Z</time>
      </trkpt>
      <trkpt lat="44.85263" lon="0.68772">
        <ele>144.81579</ele>
        <time>2011-10-16T07:07:10Z</time>
      </trkpt>
      <trkpt lat="44.85268" lon="0.68766">
        <ele>142.89306</ele>
        <time>2011-10-16T07:07:13Z</time>
      </trkpt>
      <trkpt lat="44.85272" lon="0.68762">
        <ele>141.45104</ele>
        <time>2011-10-16T07:07:16Z</time>
      </trkpt>
      <trkpt lat="44.85284" lon="0.68752">
        <ele>139.52844</ele>
        <time>2011-10-16T07:07:22Z</time>
      </trkpt>
      <trkpt lat="44.85296" lon="0.68738">
        <ele>140.00915</ele>
        <time>2011-10-16T07:07:27Z</time>
      </trkpt>
      <trkpt lat="44.85303" lon="0.68724">
        <ele>139.52844</ele>
        <time>2011-10-16T07:07:31Z</time>
      </trkpt>
      <trkpt lat="44.85306" lon="0.68713">
        <ele>137.60583</ele>
        <time>2011-10-16T07:07:34Z</time>
      </trkpt>
      <trkpt lat="44.85311" lon="0.68696">
        <ele>136.16394</ele>
        <time>2011-10-16T07:07:39Z</time>
      </trkpt>
      <trkpt lat="44.85315" lon="0.68682">
        <ele>135.6831</ele>
        <time>2011-10-16T07:07:43Z</time>
      </trkpt>
      <trkpt lat="44.85321" lon="0.68666">
        <ele>134.72192</ele>
        <time>2011-10-16T07:07:47Z</time>
      </trkpt>
      <trkpt lat="44.8533" lon="0.68654">
        <ele>135.20251</ele>
        <time>2011-10-16T07:07:51Z</time>
      </trkpt>
      <trkpt lat="44.85334" lon="0.68642">
        <ele>134.72192</ele>
        <time>2011-10-16T07:07:54Z</time>
      </trkpt>
      <trkpt lat="44.85336" lon="0.68631">
        <ele>132.79931</ele>
        <time>2011-10-16T07:07:57Z</time>
      </trkpt>
      <trkpt lat="44.85338" lon="0.68628">
        <ele>132.79931</ele>
        <time>2011-10-16T07:07:58Z</time>
      </trkpt>
      <trkpt lat="44.85341" lon="0.68613">
        <ele>133.2799</ele>
        <time>2011-10-16T07:08:02Z</time>
      </trkpt>
      <trkpt lat="44.85348" lon="0.68595">
        <ele>133.76049</ele>
        <time>2011-10-16T07:08:08Z</time>
      </trkpt>
      <trkpt lat="44.85355" lon="0.68578">
        <ele>132.3186</ele>
        <time>2011-10-16T07:08:13Z</time>
      </trkpt>
      <trkpt lat="44.85359" lon="0.68562">
        <ele>130.39599</ele>
        <time>2011-10-16T07:08:17Z</time>
      </trkpt>
      <trkpt lat="44.85366" lon="0.68545">
        <ele>128.9541</ele>
        <time>2011-10-16T07:08:22Z</time>
      </trkpt>
      <trkpt lat="44.85371" lon="0.68539">
        <ele>127.51196</ele>
        <time>2011-10-16T07:08:24Z</time>
      </trkpt>
      <trkpt lat="44.85373" lon="0.68533">
        <ele>127.51196</ele>
        <time>2011-10-16T07:08:26Z</time>
      </trkpt>
      <trkpt lat="44.85377" lon="0.6852">
        <ele>128.47338</ele>
        <time>2011-10-16T07:08:30Z</time>
      </trkpt>
      <trkpt lat="44.85386" lon="0.68504">
        <ele>128.47338</ele>
        <time>2011-10-16T07:08:35Z</time>
      </trkpt>
      <trkpt lat="44.85394" lon="0.68488">
        <ele>126.55065</ele>
        <time>2011-10-16T07:08:40Z</time>
      </trkpt>
      <trkpt lat="44.85396" lon="0.68475">
        <ele>125.10876</ele>
        <time>2011-10-16T07:08:44Z</time>
      </trkpt>
      <trkpt lat="44.85398" lon="0.68462">
        <ele>128.47338</ele>
        <time>2011-10-16T07:08:48Z</time>
      </trkpt>
      <trkpt lat="44.85407" lon="0.68453">
        <ele>127.99255</ele>
        <time>2011-10-16T07:08:52Z</time>
      </trkpt>
      <trkpt lat="44.85418" lon="0.68435">
        <ele>126.55065</ele>
        <time>2011-10-16T07:08:58Z</time>
      </trkpt>
      <trkpt lat="44.85424" lon="0.68418">
        <ele>126.55065</ele>
        <time>2011-10-16T07:09:03Z</time>
      </trkpt>
      <trkpt lat="44.8543" lon="0.68402">
        <ele>128.47338</ele>
        <time>2011-10-16T07:09:08Z</time>
      </trkpt>
      <trkpt lat="44.85436" lon="0.68389">
        <ele>129.43469</ele>
        <time>2011-10-16T07:09:13Z</time>
      </trkpt>
      <trkpt lat="44.85445" lon="0.68376">
        <ele>127.99255</ele>
        <time>2011-10-16T07:09:18Z</time>
      </trkpt>
      <trkpt lat="44.85453" lon="0.6836">
        <ele>126.06994</ele>
        <time>2011-10-16T07:09:23Z</time>
      </trkpt>
      <trkpt lat="44.85463" lon="0.68344">
        <ele>125.58935</ele>
        <time>2011-10-16T07:09:29Z</time>
      </trkpt>
      <trkpt lat="44.85475" lon="0.68324">
        <ele>124.62805</ele>
        <time>2011-10-16T07:09:36Z</time>
      </trkpt>
      <trkpt lat="44.85481" lon="0.68314">
        <ele>125.58935</ele>
        <time>2011-10-16T07:09:40Z</time>
      </trkpt>
      <trkpt lat="44.85491" lon="0.68302">
        <ele>127.03137</ele>
        <time>2011-10-16T07:09:45Z</time>
      </trkpt>
      <trkpt lat="44.85502" lon="0.68288">
        <ele>127.03137</ele>
        <time>2011-10-16T07:09:50Z</time>
      </trkpt>
      <trkpt lat="44.85512" lon="0.68273">
        <ele>127.51196</ele>
        <time>2011-10-16T07:09:56Z</time>
      </trkpt>
      <trkpt lat="44.85524" lon="0.68259">
        <ele>129.91528</ele>
        <time>2011-10-16T07:10:02Z</time>
      </trkpt>
      <trkpt lat="44.85529" lon="0.68248">
        <ele>133.2799</ele>
        <time>2011-10-16T07:10:06Z</time>
      </trkpt>
      <trkpt lat="44.85539" lon="0.68233">
        <ele>134.24121</ele>
        <time>2011-10-16T07:10:11Z</time>
      </trkpt>
      <trkpt lat="44.85548" lon="0.68223">
        <ele>135.20251</ele>
        <time>2011-10-16T07:10:16Z</time>
      </trkpt>
      <trkpt lat="44.85557" lon="0.68205">
        <ele>139.52844</ele>
        <time>2011-10-16T07:10:22Z</time>
      </trkpt>
      <trkpt lat="44.85567" lon="0.68191">
        <ele>140.97045</ele>
        <time>2011-10-16T07:10:27Z</time>
      </trkpt>
      <trkpt lat="44.85574" lon="0.68183">
        <ele>140.97045</ele>
        <time>2011-10-16T07:10:31Z</time>
      </trkpt>
      <trkpt lat="44.85582" lon="0.68169">
        <ele>143.37365</ele>
        <time>2011-10-16T07:10:36Z</time>
      </trkpt>
      <trkpt lat="44.85592" lon="0.68153">
        <ele>144.81579</ele>
        <time>2011-10-16T07:10:41Z</time>
      </trkpt>
      <trkpt lat="44.85601" lon="0.68144">
        <ele>145.77709</ele>
        <time>2011-10-16T07:10:45Z</time>
      </trkpt>
      <trkpt lat="44.8561" lon="0.6813">
        <ele>146.7384</ele>
        <time>2011-10-16T07:10:50Z</time>
      </trkpt>
      <trkpt lat="44.85623" lon="0.68116">
        <ele>146.25781</ele>
        <time>2011-10-16T07:10:56Z</time>
      </trkpt>
      <trkpt lat="44.85631" lon="0.68108">
        <ele>145.29638</ele>
        <time>2011-10-16T07:11:00Z</time>
      </trkpt>
      <trkpt lat="44.85639" lon="0.68098">
        <ele>144.81579</ele>
        <time>2011-10-16T07:11:04Z</time>
      </trkpt>
      <trkpt lat="44.85644" lon="0.68092">
        <ele>144.81579</ele>
        <time>2011-10-16T07:11:06Z</time>
      </trkpt>
      <trkpt lat="44.85654" lon="0.68079">
        <ele>146.25781</ele>
        <time>2011-10-16T07:11:11Z</time>
      </trkpt>
      <trkpt lat="44.85658" lon="0.68078">
        <ele>147.21899</ele>
        <time>2011-10-16T07:11:13Z</time>
      </trkpt>
      <trkpt lat="44.85667" lon="0.68067">
        <ele>145.29638</ele>
        <time>2011-10-16T07:11:19Z</time>
      </trkpt>
      <trkpt lat="44.8567" lon="0.68055">
        <ele>142.41247</ele>
        <time>2011-10-16T07:11:23Z</time>
      </trkpt>
      <trkpt lat="44.8567" lon="0.68044">
        <ele>141.93176</ele>
        <time>2011-10-16T07:11:26Z</time>
      </trkpt>
      <trkpt lat="44.85671" lon="0.68033">
        <ele>142.89306</ele>
        <time>2011-10-16T07:11:29Z</time>
      </trkpt>
      <trkpt lat="44.85678" lon="0.68013">
        <ele>142.89306</ele>
        <time>2011-10-16T07:11:35Z</time>
      </trkpt>
      <trkpt lat="44.8568" lon="0.67998">
        <ele>141.93176</ele>
        <time>2011-10-16T07:11:39Z</time>
      </trkpt>
      <trkpt lat="44.85688" lon="0.67973">
        <ele>140.48986</ele>
        <time>2011-10-16T07:11:46Z</time>
      </trkpt>
      <trkpt lat="44.85694" lon="0.67953">
        <ele>140.00915</ele>
        <time>2011-10-16T07:11:51Z</time>
      </trkpt>
      <trkpt lat="44.857" lon="0.67935">
        <ele>137.60583</ele>
        <time>2011-10-16T07:11:56Z</time>
      </trkpt>
      <trkpt lat="44.85708" lon="0.67919">
        <ele>134.72192</ele>
        <time>2011-10-16T07:12:01Z</time>
      </trkpt>
      <trkpt lat="44.85716" lon="0.67904">
        <ele>132.3186</ele>
        <time>2011-10-16T07:12:06Z</time>
      </trkpt>
      <trkpt lat="44.85722" lon="0.67885">
        <ele>130.39599</ele>
        <time>2011-10-16T07:12:12Z</time>
      </trkpt>
      <trkpt lat="44.85728" lon="0.67863">
        <ele>130.39599</ele>
        <time>2011-10-16T07:12:18Z</time>
      </trkpt>
      <trkpt lat="44.85736" lon="0.67847">
        <ele>128.9541</ele>
        <time>2011-10-16T07:12:23Z</time>
      </trkpt>
      <trkpt lat="44.85744" lon="0.6783">
        <ele>124.14733</ele>
        <time>2011-10-16T07:12:29Z</time>
      </trkpt>
      <trkpt lat="44.85746" lon="0.67816">
        <ele>122.70544</ele>
        <time>2011-10-16T07:12:33Z</time>
      </trkpt>
      <trkpt lat="44.85753" lon="0.67801">
        <ele>121.26354</ele>
        <time>2011-10-16T07:12:38Z</time>
      </trkpt>
      <trkpt lat="44.85758" lon="0.67791">
        <ele>119.34082</ele>
        <time>2011-10-16T07:12:41Z</time>
      </trkpt>
      <trkpt lat="44.85767" lon="0.67776">
        <ele>116.9375</ele>
        <time>2011-10-16T07:12:46Z</time>
      </trkpt>
      <trkpt lat="44.85775" lon="0.67757">
        <ele>116.9375</ele>
        <time>2011-10-16T07:12:52Z</time>
      </trkpt>
      <trkpt lat="44.85783" lon="0.67742">
        <ele>114.05358</ele>
        <time>2011-10-16T07:12:57Z</time>
      </trkpt>
      <trkpt lat="44.85792" lon="0.67724">
        <ele>110.20825</ele>
        <time>2011-10-16T07:13:02Z</time>
      </trkpt>
      <trkpt lat="44.85799" lon="0.67712">
        <ele>109.24694</ele>
        <time>2011-10-16T07:13:06Z</time>
      </trkpt>
      <trkpt lat="44.85806" lon="0.67702">
        <ele>109.72766</ele>
        <time>2011-10-16T07:13:10Z</time>
      </trkpt>
      <trkpt lat="44.85813" lon="0.6769">
        <ele>108.28564</ele>
        <time>2011-10-16T07:13:14Z</time>
      </trkpt>
      <trkpt lat="44.85825" lon="0.67668">
        <ele>106.36303</ele>
        <time>2011-10-16T07:13:21Z</time>
      </trkpt>
      <trkpt lat="44.85832" lon="0.67653">
        <ele>103.95971</ele>
        <time>2011-10-16T07:13:25Z</time>
      </trkpt>
      <trkpt lat="44.8584" lon="0.67636">
        <ele>104.44042</ele>
        <time>2011-10-16T07:13:30Z</time>
      </trkpt>
      <trkpt lat="44.85845" lon="0.67619">
        <ele>103.95971</ele>
        <time>2011-10-16T07:13:35Z</time>
      </trkpt>
      <trkpt lat="44.85851" lon="0.67604">
        <ele>103.95971</ele>
        <time>2011-10-16T07:13:39Z</time>
      </trkpt>
      <trkpt lat="44.85854" lon="0.67599">
        <ele>103.95971</ele>
        <time>2011-10-16T07:13:41Z</time>
      </trkpt>
      <trkpt lat="44.85859" lon="0.67583">
        <ele>104.92102</ele>
        <time>2011-10-16T07:13:45Z</time>
      </trkpt>
      <trkpt lat="44.85863" lon="0.67568">
        <ele>105.88244</ele>
        <time>2011-10-16T07:13:49Z</time>
      </trkpt>
      <trkpt lat="44.85867" lon="0.67557">
        <ele>104.44042</ele>
        <time>2011-10-16T07:13:52Z</time>
      </trkpt>
      <trkpt lat="44.85877" lon="0.67537">
        <ele>103.479</ele>
        <time>2011-10-16T07:13:58Z</time>
      </trkpt>
      <trkpt lat="44.85877" lon="0.67533">
        <ele>103.479</ele>
        <time>2011-10-16T07:13:59Z</time>
      </trkpt>
      <trkpt lat="44.85887" lon="0.67514">
        <ele>102.5177</ele>
        <time>2011-10-16T07:14:04Z</time>
      </trkpt>
      <trkpt lat="44.85894" lon="0.67502">
        <ele>103.479</ele>
        <time>2011-10-16T07:14:08Z</time>
      </trkpt>
      <trkpt lat="44.85904" lon="0.67495">
        <ele>105.40173</ele>
        <time>2011-10-16T07:14:12Z</time>
      </trkpt>
      <trkpt lat="44.85915" lon="0.67495">
        <ele>103.95971</ele>
        <time>2011-10-16T07:14:16Z</time>
      </trkpt>
      <trkpt lat="44.8592" lon="0.67496">
        <ele>104.44042</ele>
        <time>2011-10-16T07:14:18Z</time>
      </trkpt>
      <trkpt lat="44.85935" lon="0.67494">
        <ele>103.479</ele>
        <time>2011-10-16T07:14:23Z</time>
      </trkpt>
      <trkpt lat="44.85943" lon="0.67491">
        <ele>104.92102</ele>
        <time>2011-10-16T07:14:27Z</time>
      </trkpt>
      <trkpt lat="44.85952" lon="0.67483">
        <ele>107.32434</ele>
        <time>2011-10-16T07:14:32Z</time>
      </trkpt>
      <trkpt lat="44.85962" lon="0.67476">
        <ele>107.32434</ele>
        <time>2011-10-16T07:14:36Z</time>
      </trkpt>
      <trkpt lat="44.85973" lon="0.67463">
        <ele>107.80505</ele>
        <time>2011-10-16T07:14:41Z</time>
      </trkpt>
      <trkpt lat="44.8598" lon="0.67452">
        <ele>107.32434</ele>
        <time>2011-10-16T07:14:45Z</time>
      </trkpt>
      <trkpt lat="44.85986" lon="0.67438">
        <ele>107.32434</ele>
        <time>2011-10-16T07:14:50Z</time>
      </trkpt>
      <trkpt lat="44.85995" lon="0.6742">
        <ele>106.84362</ele>
        <time>2011-10-16T07:14:56Z</time>
      </trkpt>
      <trkpt lat="44.86004" lon="0.67404">
        <ele>104.44042</ele>
        <time>2011-10-16T07:15:01Z</time>
      </trkpt>
      <trkpt lat="44.86012" lon="0.67388">
        <ele>103.95971</ele>
        <time>2011-10-16T07:15:06Z</time>
      </trkpt>
      <trkpt lat="44.86018" lon="0.67376">
        <ele>102.5177</ele>
        <time>2011-10-16T07:15:10Z</time>
      </trkpt>
      <trkpt lat="44.86027" lon="0.67363">
        <ele>101.55639</ele>
        <time>2011-10-16T07:15:14Z</time>
      </trkpt>
      <trkpt lat="44.86039" lon="0.67352">
        <ele>101.55639</ele>
        <time>2011-10-16T07:15:19Z</time>
      </trkpt>
      <trkpt lat="44.86051" lon="0.67342">
        <ele>99.633789</ele>
        <time>2011-10-16T07:15:24Z</time>
      </trkpt>
      <trkpt lat="44.86066" lon="0.67335">
        <ele>97.230468</ele>
        <time>2011-10-16T07:15:29Z</time>
      </trkpt>
      <trkpt lat="44.86081" lon="0.67325">
        <ele>94.827148</ele>
        <time>2011-10-16T07:15:34Z</time>
      </trkpt>
      <trkpt lat="44.86093" lon="0.67318">
        <ele>94.346557</ele>
        <time>2011-10-16T07:15:38Z</time>
      </trkpt>
      <trkpt lat="44.86104" lon="0.67309">
        <ele>94.827148</ele>
        <time>2011-10-16T07:15:43Z</time>
      </trkpt>
      <trkpt lat="44.86122" lon="0.67302">
        <ele>93.385131</ele>
        <time>2011-10-16T07:15:49Z</time>
      </trkpt>
      <trkpt lat="44.86138" lon="0.6729">
        <ele>92.42395</ele>
        <time>2011-10-16T07:15:54Z</time>
      </trkpt>
      <trkpt lat="44.86151" lon="0.67281">
        <ele>90.501342</ele>
        <time>2011-10-16T07:15:58Z</time>
      </trkpt>
      <trkpt lat="44.86164" lon="0.67276">
        <ele>89.539917</ele>
        <time>2011-10-16T07:16:02Z</time>
      </trkpt>
      <trkpt lat="44.86174" lon="0.67269">
        <ele>90.501342</ele>
        <time>2011-10-16T07:16:06Z</time>
      </trkpt>
      <trkpt lat="44.86185" lon="0.67262">
        <ele>90.981933</ele>
        <time>2011-10-16T07:16:10Z</time>
      </trkpt>
      <trkpt lat="44.86199" lon="0.67254">
        <ele>90.020629</ele>
        <time>2011-10-16T07:16:15Z</time>
      </trkpt>
      <trkpt lat="44.86212" lon="0.67245">
        <ele>90.501342</ele>
        <time>2011-10-16T07:16:20Z</time>
      </trkpt>
      <trkpt lat="44.86228" lon="0.67242">
        <ele>90.981933</ele>
        <time>2011-10-16T07:16:25Z</time>
      </trkpt>
      <trkpt lat="44.86244" lon="0.67243">
        <ele>90.020629</ele>
        <time>2011-10-16T07:16:30Z</time>
      </trkpt>
      <trkpt lat="44.86268" lon="0.67246">
        <ele>85.69458</ele>
        <time>2011-10-16T07:16:37Z</time>
      </trkpt>
      <trkpt lat="44.86274" lon="0.67248">
        <ele>84.733398</ele>
        <time>2011-10-16T07:16:39Z</time>
      </trkpt>
      <trkpt lat="44.86284" lon="0.6725">
        <ele>82.330078</ele>
        <time>2011-10-16T07:16:42Z</time>
      </trkpt>
      <trkpt lat="44.86295" lon="0.67254">
        <ele>82.330078</ele>
        <time>2011-10-16T07:16:47Z</time>
      </trkpt>
      <trkpt lat="44.86305" lon="0.67258">
        <ele>80.888183</ele>
        <time>2011-10-16T07:16:50Z</time>
      </trkpt>
      <trkpt lat="44.86322" lon="0.67261">
        <ele>79.926635</ele>
        <time>2011-10-16T07:16:55Z</time>
      </trkpt>
      <trkpt lat="44.86338" lon="0.67265">
        <ele>78.484741</ele>
        <time>2011-10-16T07:17:00Z</time>
      </trkpt>
      <trkpt lat="44.86348" lon="0.67267">
        <ele>77.042846</ele>
        <time>2011-10-16T07:17:04Z</time>
      </trkpt>
      <trkpt lat="44.86359" lon="0.67268">
        <ele>75.60083</ele>
        <time>2011-10-16T07:17:07Z</time>
      </trkpt>
      <trkpt lat="44.86369" lon="0.67267">
        <ele>76.562133</ele>
        <time>2011-10-16T07:17:11Z</time>
      </trkpt>
      <trkpt lat="44.8638" lon="0.67267">
        <ele>78.004028</ele>
        <time>2011-10-16T07:17:15Z</time>
      </trkpt>
      <trkpt lat="44.86386" lon="0.67266">
        <ele>78.484741</ele>
        <time>2011-10-16T07:17:17Z</time>
      </trkpt>
      <trkpt lat="44.86399" lon="0.67259">
        <ele>80.40747</ele>
        <time>2011-10-16T07:17:22Z</time>
      </trkpt>
      <trkpt lat="44.86415" lon="0.67252">
        <ele>80.888183</ele>
        <time>2011-10-16T07:17:28Z</time>
      </trkpt>
      <trkpt lat="44.86423" lon="0.67245">
        <ele>80.888183</ele>
        <time>2011-10-16T07:17:32Z</time>
      </trkpt>
      <trkpt lat="44.86429" lon="0.6724">
        <ele>81.368774</ele>
        <time>2011-10-16T07:17:36Z</time>
      </trkpt>
      <trkpt lat="44.86436" lon="0.67232">
        <ele>83.291381</ele>
        <time>2011-10-16T07:17:45Z</time>
      </trkpt>
      <trkpt lat="44.86439" lon="0.67231">
        <ele>84.733398</ele>
        <time>2011-10-16T07:17:52Z</time>
      </trkpt>
      <trkpt lat="44.86437" lon="0.67233">
        <ele>85.69458</ele>
        <time>2011-10-16T07:17:57Z</time>
      </trkpt>
      <trkpt lat="44.86433" lon="0.67237">
        <ele>87.136596</ele>
        <time>2011-10-16T07:18:03Z</time>
      </trkpt>
      <trkpt lat="44.86433" lon="0.67235">
        <ele>89.539917</ele>
        <time>2011-10-16T07:18:09Z</time>
      </trkpt>
      <trkpt lat="44.86435" lon="0.67232">
        <ele>92.904541</ele>
        <time>2011-10-16T07:18:15Z</time>
      </trkpt>
      <trkpt lat="44.86439" lon="0.67228">
        <ele>90.501342</ele>
        <time>2011-10-16T07:18:20Z</time>
      </trkpt>
      <trkpt lat="44.86443" lon="0.67225">
        <ele>89.059326</ele>
        <time>2011-10-16T07:18:23Z</time>
      </trkpt>
      <trkpt lat="44.86447" lon="0.67221">
        <ele>87.617187</ele>
        <time>2011-10-16T07:18:26Z</time>
      </trkpt>
      <trkpt lat="44.86453" lon="0.67218">
        <ele>86.656005</ele>
        <time>2011-10-16T07:18:30Z</time>
      </trkpt>
      <trkpt lat="44.86455" lon="0.6722">
        <ele>86.175293</ele>
        <time>2011-10-16T07:18:31Z</time>
      </trkpt>
      <trkpt lat="44.86466" lon="0.67241">
        <ele>82.810791</ele>
        <time>2011-10-16T07:18:38Z</time>
      </trkpt>
      <trkpt lat="44.8647" lon="0.67259">
        <ele>83.771972</ele>
        <time>2011-10-16T07:18:43Z</time>
      </trkpt>
      <trkpt lat="44.86478" lon="0.67275">
        <ele>84.733398</ele>
        <time>2011-10-16T07:18:48Z</time>
      </trkpt>
      <trkpt lat="44.86485" lon="0.67285">
        <ele>85.213989</ele>
        <time>2011-10-16T07:18:52Z</time>
      </trkpt>
      <trkpt lat="44.86494" lon="0.67297">
        <ele>86.656005</ele>
        <time>2011-10-16T07:18:56Z</time>
      </trkpt>
      <trkpt lat="44.86497" lon="0.67309">
        <ele>89.539917</ele>
        <time>2011-10-16T07:19:00Z</time>
      </trkpt>
      <trkpt lat="44.86502" lon="0.67326">
        <ele>93.865844</ele>
        <time>2011-10-16T07:19:05Z</time>
      </trkpt>
      <trkpt lat="44.8651" lon="0.67342">
        <ele>93.865844</ele>
        <time>2011-10-16T07:19:10Z</time>
      </trkpt>
      <trkpt lat="44.86517" lon="0.67354">
        <ele>94.346557</ele>
        <time>2011-10-16T07:19:14Z</time>
      </trkpt>
      <trkpt lat="44.86522" lon="0.67366">
        <ele>96.749877</ele>
        <time>2011-10-16T07:19:18Z</time>
      </trkpt>
      <trkpt lat="44.86528" lon="0.67384">
        <ele>99.153076</ele>
        <time>2011-10-16T07:19:23Z</time>
      </trkpt>
      <trkpt lat="44.86529" lon="0.67398">
        <ele>101.07568</ele>
        <time>2011-10-16T07:19:27Z</time>
      </trkpt>
      <trkpt lat="44.86528" lon="0.67419">
        <ele>100.59509</ele>
        <time>2011-10-16T07:19:32Z</time>
      </trkpt>
      <trkpt lat="44.86521" lon="0.67433">
        <ele>100.59509</ele>
        <time>2011-10-16T07:19:36Z</time>
      </trkpt>
      <trkpt lat="44.86512" lon="0.6745">
        <ele>97.711181</ele>
        <time>2011-10-16T07:19:42Z</time>
      </trkpt>
      <trkpt lat="44.86506" lon="0.67465">
        <ele>97.711181</ele>
        <time>2011-10-16T07:19:46Z</time>
      </trkpt>
      <trkpt lat="44.86501" lon="0.67485">
        <ele>97.711181</ele>
        <time>2011-10-16T07:19:51Z</time>
      </trkpt>
      <trkpt lat="44.86499" lon="0.67493">
        <ele>97.711181</ele>
        <time>2011-10-16T07:19:53Z</time>
      </trkpt>
      <trkpt lat="44.86494" lon="0.67517">
        <ele>96.749877</ele>
        <time>2011-10-16T07:19:59Z</time>
      </trkpt>
      <trkpt lat="44.86491" lon="0.67527">
        <ele>95.788452</ele>
        <time>2011-10-16T07:20:02Z</time>
      </trkpt>
      <trkpt lat="44.86509" lon="0.67532">
        <ele>96.749877</ele>
        <time>2011-10-16T07:20:09Z</time>
      </trkpt>
      <trkpt lat="44.86519" lon="0.67532">
        <ele>97.711181</ele>
        <time>2011-10-16T07:20:13Z</time>
      </trkpt>
      <trkpt lat="44.86532" lon="0.67533">
        <ele>97.230468</ele>
        <time>2011-10-16T07:20:17Z</time>
      </trkpt>
      <trkpt lat="44.8655" lon="0.67532">
        <ele>97.711181</ele>
        <time>2011-10-16T07:20:23Z</time>
      </trkpt>
      <trkpt lat="44.86567" lon="0.67527">
        <ele>95.307739</ele>
        <time>2011-10-16T07:20:28Z</time>
      </trkpt>
      <trkpt lat="44.86573" lon="0.67525">
        <ele>96.269287</ele>
        <time>2011-10-16T07:20:31Z</time>
      </trkpt>
      <trkpt lat="44.86572" lon="0.67521">
        <ele>99.633789</ele>
        <time>2011-10-16T07:20:36Z</time>
      </trkpt>
      <trkpt lat="44.86571" lon="0.67519">
        <ele>106.36303</ele>
        <time>2011-10-16T07:20:46Z</time>
      </trkpt>
      <trkpt lat="44.86581" lon="0.67515">
        <ele>109.24694</ele>
        <time>2011-10-16T07:20:51Z</time>
      </trkpt>
      <trkpt lat="44.86595" lon="0.67513">
        <ele>114.53417</ele>
        <time>2011-10-16T07:20:57Z</time>
      </trkpt>
      <trkpt lat="44.86609" lon="0.67512">
        <ele>115.01489</ele>
        <time>2011-10-16T07:21:02Z</time>
      </trkpt>
      <trkpt lat="44.86618" lon="0.67517">
        <ele>115.01489</ele>
        <time>2011-10-16T07:21:06Z</time>
      </trkpt>
      <trkpt lat="44.86633" lon="0.67517">
        <ele>114.53417</ele>
        <time>2011-10-16T07:21:12Z</time>
      </trkpt>
      <trkpt lat="44.86643" lon="0.6751">
        <ele>112.61157</ele>
        <time>2011-10-16T07:21:16Z</time>
      </trkpt>
      <trkpt lat="44.8666" lon="0.67499">
        <ele>104.92102</ele>
        <time>2011-10-16T07:21:21Z</time>
      </trkpt>
      <trkpt lat="44.86662" lon="0.67498">
        <ele>104.44042</ele>
        <time>2011-10-16T07:21:22Z</time>
      </trkpt>
      <trkpt lat="44.86668" lon="0.67483">
        <ele>104.44042</ele>
        <time>2011-10-16T07:21:27Z</time>
      </trkpt>
      <trkpt lat="44.86673" lon="0.67479">
        <ele>105.88244</ele>
        <time>2011-10-16T07:21:29Z</time>
      </trkpt>
      <trkpt lat="44.86686" lon="0.67479">
        <ele>111.65026</ele>
        <time>2011-10-16T07:21:34Z</time>
      </trkpt>
      <trkpt lat="44.86698" lon="0.67483">
        <ele>112.13098</ele>
        <time>2011-10-16T07:21:39Z</time>
      </trkpt>
      <trkpt lat="44.8671" lon="0.67475">
        <ele>114.53417</ele>
        <time>2011-10-16T07:21:44Z</time>
      </trkpt>
      <trkpt lat="44.86724" lon="0.67468">
        <ele>113.57299</ele>
        <time>2011-10-16T07:21:49Z</time>
      </trkpt>
      <trkpt lat="44.86735" lon="0.67466">
        <ele>112.61157</ele>
        <time>2011-10-16T07:21:53Z</time>
      </trkpt>
      <trkpt lat="44.86749" lon="0.67462">
        <ele>112.61157</ele>
        <time>2011-10-16T07:21:58Z</time>
      </trkpt>
      <trkpt lat="44.86762" lon="0.67458">
        <ele>113.09228</ele>
        <time>2011-10-16T07:22:03Z</time>
      </trkpt>
      <trkpt lat="44.86776" lon="0.67455">
        <ele>115.01489</ele>
        <time>2011-10-16T07:22:09Z</time>
      </trkpt>
      <trkpt lat="44.86802" lon="0.67452">
        <ele>116.9375</ele>
        <time>2011-10-16T07:22:18Z</time>
      </trkpt>
      <trkpt lat="44.86814" lon="0.67454">
        <ele>118.37939</ele>
        <time>2011-10-16T07:22:23Z</time>
      </trkpt>
      <trkpt lat="44.86836" lon="0.67461">
        <ele>115.97619</ele>
        <time>2011-10-16T07:22:31Z</time>
      </trkpt>
      <trkpt lat="44.86856" lon="0.67466">
        <ele>116.45678</ele>
        <time>2011-10-16T07:22:38Z</time>
      </trkpt>
      <trkpt lat="44.8687" lon="0.6747">
        <ele>116.45678</ele>
        <time>2011-10-16T07:22:43Z</time>
      </trkpt>
      <trkpt lat="44.86883" lon="0.67474">
        <ele>116.45678</ele>
        <time>2011-10-16T07:22:48Z</time>
      </trkpt>
      <trkpt lat="44.86903" lon="0.67481">
        <ele>114.53417</ele>
        <time>2011-10-16T07:22:55Z</time>
      </trkpt>
      <trkpt lat="44.86908" lon="0.67482">
        <ele>113.57299</ele>
        <time>2011-10-16T07:22:57Z</time>
      </trkpt>
      <trkpt lat="44.86919" lon="0.67488">
        <ele>113.09228</ele>
        <time>2011-10-16T07:23:01Z</time>
      </trkpt>
      <trkpt lat="44.86932" lon="0.67493">
        <ele>113.57299</ele>
        <time>2011-10-16T07:23:06Z</time>
      </trkpt>
      <trkpt lat="44.86945" lon="0.67487">
        <ele>114.53417</ele>
        <time>2011-10-16T07:23:11Z</time>
      </trkpt>
      <trkpt lat="44.86955" lon="0.67475">
        <ele>116.9375</ele>
        <time>2011-10-16T07:23:16Z</time>
      </trkpt>
      <trkpt lat="44.86965" lon="0.67462">
        <ele>117.8988</ele>
        <time>2011-10-16T07:23:21Z</time>
      </trkpt>
      <trkpt lat="44.86974" lon="0.67451">
        <ele>119.82141</ele>
        <time>2011-10-16T07:23:26Z</time>
      </trkpt>
      <trkpt lat="44.86989" lon="0.67435">
        <ele>122.22473</ele>
        <time>2011-10-16T07:23:33Z</time>
      </trkpt>
      <trkpt lat="44.87" lon="0.67422">
        <ele>123.18615</ele>
        <time>2011-10-16T07:23:38Z</time>
      </trkpt>
      <trkpt lat="44.87009" lon="0.67414">
        <ele>125.58935</ele>
        <time>2011-10-16T07:23:42Z</time>
      </trkpt>
      <trkpt lat="44.87021" lon="0.674">
        <ele>125.58935</ele>
        <time>2011-10-16T07:23:48Z</time>
      </trkpt>
      <trkpt lat="44.87029" lon="0.67387">
        <ele>128.9541</ele>
        <time>2011-10-16T07:23:53Z</time>
      </trkpt>
      <trkpt lat="44.87038" lon="0.67379">
        <ele>135.6831</ele>
        <time>2011-10-16T07:23:58Z</time>
      </trkpt>
      <trkpt lat="44.87047" lon="0.67376">
        <ele>141.45104</ele>
        <time>2011-10-16T07:24:03Z</time>
      </trkpt>
      <trkpt lat="44.87056" lon="0.67369">
        <ele>141.45104</ele>
        <time>2011-10-16T07:24:07Z</time>
      </trkpt>
      <trkpt lat="44.87069" lon="0.67355">
        <ele>138.56726</ele>
        <time>2011-10-16T07:24:13Z</time>
      </trkpt>
      <trkpt lat="44.87074" lon="0.6735">
        <ele>138.08654</ele>
        <time>2011-10-16T07:24:16Z</time>
      </trkpt>
      <trkpt lat="44.87082" lon="0.67342">
        <ele>138.08654</ele>
        <time>2011-10-16T07:24:21Z</time>
      </trkpt>
      <trkpt lat="44.87091" lon="0.67334">
        <ele>136.64465</ele>
        <time>2011-10-16T07:24:26Z</time>
      </trkpt>
      <trkpt lat="44.87097" lon="0.67328">
        <ele>136.16394</ele>
        <time>2011-10-16T07:24:29Z</time>
      </trkpt>
      <trkpt lat="44.87107" lon="0.67315">
        <ele>137.60583</ele>
        <time>2011-10-16T07:24:35Z</time>
      </trkpt>
      <trkpt lat="44.87113" lon="0.67304">
        <ele>139.04785</ele>
        <time>2011-10-16T07:24:39Z</time>
      </trkpt>
      <trkpt lat="44.87118" lon="0.67299">
        <ele>135.6831</ele>
        <time>2011-10-16T07:24:41Z</time>
      </trkpt>
      <trkpt lat="44.87128" lon="0.67281">
        <ele>134.72192</ele>
        <time>2011-10-16T07:24:47Z</time>
      </trkpt>
      <trkpt lat="44.87137" lon="0.67267">
        <ele>133.76049</ele>
        <time>2011-10-16T07:24:52Z</time>
      </trkpt>
      <trkpt lat="44.87145" lon="0.67254">
        <ele>133.2799</ele>
        <time>2011-10-16T07:24:57Z</time>
      </trkpt>
      <trkpt lat="44.87152" lon="0.67235">
        <ele>136.64465</ele>
        <time>2011-10-16T07:25:03Z</time>
      </trkpt>
      <trkpt lat="44.87157" lon="0.67217">
        <ele>143.37365</ele>
        <time>2011-10-16T07:25:08Z</time>
      </trkpt>
      <trkpt lat="44.87165" lon="0.67203">
        <ele>148.66101</ele>
        <time>2011-10-16T07:25:13Z</time>
      </trkpt>
      <trkpt lat="44.87168" lon="0.67198">
        <ele>149.1416</ele>
        <time>2011-10-16T07:25:15Z</time>
      </trkpt>
      <trkpt lat="44.87178" lon="0.67186">
        <ele>149.1416</ele>
        <time>2011-10-16T07:25:20Z</time>
      </trkpt>
      <trkpt lat="44.87183" lon="0.67175">
        <ele>142.41247</ele>
        <time>2011-10-16T07:25:24Z</time>
      </trkpt>
      <trkpt lat="44.87184" lon="0.67162">
        <ele>135.6831</ele>
        <time>2011-10-16T07:25:28Z</time>
      </trkpt>
      <trkpt lat="44.87183" lon="0.67159">
        <ele>136.16394</ele>
        <time>2011-10-16T07:25:29Z</time>
      </trkpt>
      <trkpt lat="44.87178" lon="0.67137">
        <ele>138.08654</ele>
        <time>2011-10-16T07:25:35Z</time>
      </trkpt>
      <trkpt lat="44.87178" lon="0.67117">
        <ele>137.60583</ele>
        <time>2011-10-16T07:25:40Z</time>
      </trkpt>
      <trkpt lat="44.87177" lon="0.67097">
        <ele>137.12524</ele>
        <time>2011-10-16T07:25:45Z</time>
      </trkpt>
      <trkpt lat="44.87183" lon="0.67076">
        <ele>136.64465</ele>
        <time>2011-10-16T07:25:51Z</time>
      </trkpt>
      <trkpt lat="44.87186" lon="0.6706">
        <ele>139.52844</ele>
        <time>2011-10-16T07:25:55Z</time>
      </trkpt>
      <trkpt lat="44.87194" lon="0.67043">
        <ele>138.08654</ele>
        <time>2011-10-16T07:26:00Z</time>
      </trkpt>
      <trkpt lat="44.87202" lon="0.67028">
        <ele>140.00915</ele>
        <time>2011-10-16T07:26:05Z</time>
      </trkpt>
      <trkpt lat="44.87208" lon="0.67015">
        <ele>146.25781</ele>
        <time>2011-10-16T07:26:09Z</time>
      </trkpt>
      <trkpt lat="44.87217" lon="0.67004">
        <ele>146.7384</ele>
        <time>2011-10-16T07:26:13Z</time>
      </trkpt>
      <trkpt lat="44.87219" lon="0.67002">
        <ele>147.21899</ele>
        <time>2011-10-16T07:26:14Z</time>
      </trkpt>
      <trkpt lat="44.87231" lon="0.66991">
        <ele>149.62231</ele>
        <time>2011-10-16T07:26:19Z</time>
      </trkpt>
      <trkpt lat="44.87233" lon="0.6699">
        <ele>150.10302</ele>
        <time>2011-10-16T07:26:20Z</time>
      </trkpt>
      <trkpt lat="44.87248" lon="0.66979">
        <ele>150.58361</ele>
        <time>2011-10-16T07:26:26Z</time>
      </trkpt>
      <trkpt lat="44.87262" lon="0.66971">
        <ele>148.66101</ele>
        <time>2011-10-16T07:26:31Z</time>
      </trkpt>
      <trkpt lat="44.87271" lon="0.66964">
        <ele>149.62231</ele>
        <time>2011-10-16T07:26:35Z</time>
      </trkpt>
      <trkpt lat="44.8728" lon="0.66955">
        <ele>148.66101</ele>
        <time>2011-10-16T07:26:39Z</time>
      </trkpt>
      <trkpt lat="44.8729" lon="0.66949">
        <ele>148.66101</ele>
        <time>2011-10-16T07:26:43Z</time>
      </trkpt>
      <trkpt lat="44.87306" lon="0.66937">
        <ele>144.3352</ele>
        <time>2011-10-16T07:26:50Z</time>
      </trkpt>
      <trkpt lat="44.87322" lon="0.66938">
        <ele>140.48986</ele>
        <time>2011-10-16T07:26:54Z</time>
      </trkpt>
      <trkpt lat="44.87342" lon="0.6695">
        <ele>135.20251</ele>
        <time>2011-10-16T07:27:00Z</time>
      </trkpt>
      <trkpt lat="44.87355" lon="0.66955">
        <ele>130.8767</ele>
        <time>2011-10-16T07:27:05Z</time>
      </trkpt>
      <trkpt lat="44.87367" lon="0.66958">
        <ele>129.91528</ele>
        <time>2011-10-16T07:27:09Z</time>
      </trkpt>
      <trkpt lat="44.87379" lon="0.66962">
        <ele>129.91528</ele>
        <time>2011-10-16T07:27:14Z</time>
      </trkpt>
      <trkpt lat="44.87392" lon="0.66966">
        <ele>127.99255</ele>
        <time>2011-10-16T07:27:19Z</time>
      </trkpt>
      <trkpt lat="44.87405" lon="0.6697">
        <ele>128.47338</ele>
        <time>2011-10-16T07:27:24Z</time>
      </trkpt>
      <trkpt lat="44.8742" lon="0.66978">
        <ele>127.51196</ele>
        <time>2011-10-16T07:27:29Z</time>
      </trkpt>
      <trkpt lat="44.87435" lon="0.66987">
        <ele>127.51196</ele>
        <time>2011-10-16T07:27:34Z</time>
      </trkpt>
      <trkpt lat="44.87443" lon="0.66997">
        <ele>125.58935</ele>
        <time>2011-10-16T07:27:38Z</time>
      </trkpt>
      <trkpt lat="44.87463" lon="0.67013">
        <ele>127.03137</ele>
        <time>2011-10-16T07:27:46Z</time>
      </trkpt>
      <trkpt lat="44.87482" lon="0.6702">
        <ele>124.62805</ele>
        <time>2011-10-16T07:27:50Z</time>
      </trkpt>
      <trkpt lat="44.87486" lon="0.67028">
        <ele>126.06994</ele>
        <time>2011-10-16T07:27:54Z</time>
      </trkpt>
      <trkpt lat="44.87493" lon="0.67032">
        <ele>126.06994</ele>
        <time>2011-10-16T07:27:58Z</time>
      </trkpt>
      <trkpt lat="44.87503" lon="0.67022">
        <ele>127.51196</ele>
        <time>2011-10-16T07:28:04Z</time>
      </trkpt>
      <trkpt lat="44.87514" lon="0.67012">
        <ele>127.03137</ele>
        <time>2011-10-16T07:28:09Z</time>
      </trkpt>
      <trkpt lat="44.87529" lon="0.67004">
        <ele>127.51196</ele>
        <time>2011-10-16T07:28:14Z</time>
      </trkpt>
      <trkpt lat="44.87542" lon="0.67">
        <ele>127.03137</ele>
        <time>2011-10-16T07:28:19Z</time>
      </trkpt>
      <trkpt lat="44.87555" lon="0.66996">
        <ele>125.58935</ele>
        <time>2011-10-16T07:28:24Z</time>
      </trkpt>
      <trkpt lat="44.87568" lon="0.66992">
        <ele>124.14733</ele>
        <time>2011-10-16T07:28:29Z</time>
      </trkpt>
      <trkpt lat="44.8758" lon="0.66987">
        <ele>125.10876</ele>
        <time>2011-10-16T07:28:33Z</time>
      </trkpt>
      <trkpt lat="44.87582" lon="0.66985">
        <ele>125.58935</ele>
        <time>2011-10-16T07:28:34Z</time>
      </trkpt>
      <trkpt lat="44.87593" lon="0.66979">
        <ele>127.99255</ele>
        <time>2011-10-16T07:28:39Z</time>
      </trkpt>
      <trkpt lat="44.87608" lon="0.66971">
        <ele>127.51196</ele>
        <time>2011-10-16T07:28:44Z</time>
      </trkpt>
      <trkpt lat="44.87622" lon="0.66961">
        <ele>127.51196</ele>
        <time>2011-10-16T07:28:49Z</time>
      </trkpt>
      <trkpt lat="44.87636" lon="0.66955">
        <ele>128.47338</ele>
        <time>2011-10-16T07:28:55Z</time>
      </trkpt>
      <trkpt lat="44.87653" lon="0.66948">
        <ele>135.6831</ele>
        <time>2011-10-16T07:29:01Z</time>
      </trkpt>
      <trkpt lat="44.87663" lon="0.66945">
        <ele>136.16394</ele>
        <time>2011-10-16T07:29:05Z</time>
      </trkpt>
      <trkpt lat="44.87676" lon="0.66934">
        <ele>135.6831</ele>
        <time>2011-10-16T07:29:10Z</time>
      </trkpt>
      <trkpt lat="44.87685" lon="0.66927">
        <ele>137.12524</ele>
        <time>2011-10-16T07:29:14Z</time>
      </trkpt>
      <trkpt lat="44.87701" lon="0.66936">
        <ele>133.76049</ele>
        <time>2011-10-16T07:29:20Z</time>
      </trkpt>
      <trkpt lat="44.87711" lon="0.66949">
        <ele>130.8767</ele>
        <time>2011-10-16T07:29:24Z</time>
      </trkpt>
      <trkpt lat="44.87727" lon="0.66966">
        <ele>125.10876</ele>
        <time>2011-10-16T07:29:29Z</time>
      </trkpt>
      <trkpt lat="44.87733" lon="0.66979">
        <ele>123.66674</ele>
        <time>2011-10-16T07:29:33Z</time>
      </trkpt>
      <trkpt lat="44.87743" lon="0.67001">
        <ele>121.74414</ele>
        <time>2011-10-16T07:29:39Z</time>
      </trkpt>
      <trkpt lat="44.87747" lon="0.67013">
        <ele>122.22473</ele>
        <time>2011-10-16T07:29:43Z</time>
      </trkpt>
      <trkpt lat="44.87752" lon="0.67032">
        <ele>121.74414</ele>
        <time>2011-10-16T07:29:49Z</time>
      </trkpt>
      <trkpt lat="44.87758" lon="0.67044">
        <ele>121.26354</ele>
        <time>2011-10-16T07:29:53Z</time>
      </trkpt>
      <trkpt lat="44.87771" lon="0.67055">
        <ele>123.66674</ele>
        <time>2011-10-16T07:29:59Z</time>
      </trkpt>
      <trkpt lat="44.87783" lon="0.67063">
        <ele>124.14733</ele>
        <time>2011-10-16T07:30:04Z</time>
      </trkpt>
      <trkpt lat="44.87793" lon="0.67068">
        <ele>126.06994</ele>
        <time>2011-10-16T07:30:09Z</time>
      </trkpt>
      <trkpt lat="44.87806" lon="0.67077">
        <ele>126.55065</ele>
        <time>2011-10-16T07:30:14Z</time>
      </trkpt>
      <trkpt lat="44.8782" lon="0.67083">
        <ele>125.58935</ele>
        <time>2011-10-16T07:30:18Z</time>
      </trkpt>
      <trkpt lat="44.87834" lon="0.67096">
        <ele>123.66674</ele>
        <time>2011-10-16T07:30:24Z</time>
      </trkpt>
      <trkpt lat="44.87853" lon="0.67107">
        <ele>120.78283</ele>
        <time>2011-10-16T07:30:30Z</time>
      </trkpt>
      <trkpt lat="44.87863" lon="0.67112">
        <ele>123.18615</ele>
        <time>2011-10-16T07:30:35Z</time>
      </trkpt>
      <trkpt lat="44.87876" lon="0.67119">
        <ele>121.74414</ele>
        <time>2011-10-16T07:30:39Z</time>
      </trkpt>
      <trkpt lat="44.87883" lon="0.67122">
        <ele>123.66674</ele>
        <time>2011-10-16T07:30:43Z</time>
      </trkpt>
      <trkpt lat="44.87893" lon="0.67124">
        <ele>125.58935</ele>
        <time>2011-10-16T07:30:48Z</time>
      </trkpt>
      <trkpt lat="44.87907" lon="0.67127">
        <ele>128.9541</ele>
        <time>2011-10-16T07:30:53Z</time>
      </trkpt>
      <trkpt lat="44.87916" lon="0.6713">
        <ele>130.39599</ele>
        <time>2011-10-16T07:30:57Z</time>
      </trkpt>
      <trkpt lat="44.87927" lon="0.67134">
        <ele>134.72192</ele>
        <time>2011-10-16T07:31:02Z</time>
      </trkpt>
      <trkpt lat="44.87935" lon="0.67139">
        <ele>134.24121</ele>
        <time>2011-10-16T07:31:05Z</time>
      </trkpt>
      <trkpt lat="44.87944" lon="0.67142">
        <ele>134.24121</ele>
        <time>2011-10-16T07:31:09Z</time>
      </trkpt>
      <trkpt lat="44.87954" lon="0.67146">
        <ele>134.72192</ele>
        <time>2011-10-16T07:31:14Z</time>
      </trkpt>
      <trkpt lat="44.87969" lon="0.67154">
        <ele>132.3186</ele>
        <time>2011-10-16T07:31:20Z</time>
      </trkpt>
      <trkpt lat="44.87976" lon="0.67155">
        <ele>132.3186</ele>
        <time>2011-10-16T07:31:22Z</time>
      </trkpt>
      <trkpt lat="44.87991" lon="0.67159">
        <ele>135.20251</ele>
        <time>2011-10-16T07:31:28Z</time>
      </trkpt>
      <trkpt lat="44.88001" lon="0.67161">
        <ele>137.12524</ele>
        <time>2011-10-16T07:31:32Z</time>
      </trkpt>
      <trkpt lat="44.88009" lon="0.67165">
        <ele>138.56726</ele>
        <time>2011-10-16T07:31:36Z</time>
      </trkpt>
      <trkpt lat="44.88019" lon="0.67169">
        <ele>136.16394</ele>
        <time>2011-10-16T07:31:40Z</time>
      </trkpt>
      <trkpt lat="44.88027" lon="0.67176">
        <ele>134.24121</ele>
        <time>2011-10-16T07:31:43Z</time>
      </trkpt>
      <trkpt lat="44.88037" lon="0.67181">
        <ele>131.83789</ele>
        <time>2011-10-16T07:31:47Z</time>
      </trkpt>
      <trkpt lat="44.88045" lon="0.67185">
        <ele>129.43469</ele>
        <time>2011-10-16T07:31:50Z</time>
      </trkpt>
      <trkpt lat="44.88049" lon="0.67183">
        <ele>131.35729</ele>
        <time>2011-10-16T07:31:52Z</time>
      </trkpt>
      <trkpt lat="44.88063" lon="0.67191">
        <ele>129.43469</ele>
        <time>2011-10-16T07:31:57Z</time>
      </trkpt>
      <trkpt lat="44.88075" lon="0.67192">
        <ele>126.06994</ele>
        <time>2011-10-16T07:32:02Z</time>
      </trkpt>
      <trkpt lat="44.88083" lon="0.67194">
        <ele>123.18615</ele>
        <time>2011-10-16T07:32:05Z</time>
      </trkpt>
      <trkpt lat="44.88102" lon="0.67202">
        <ele>124.14733</ele>
        <time>2011-10-16T07:32:11Z</time>
      </trkpt>
      <trkpt lat="44.88115" lon="0.67204">
        <ele>124.14733</ele>
        <time>2011-10-16T07:32:15Z</time>
      </trkpt>
      <trkpt lat="44.88127" lon="0.67216">
        <ele>123.18615</ele>
        <time>2011-10-16T07:32:19Z</time>
      </trkpt>
      <trkpt lat="44.88132" lon="0.67226">
        <ele>126.55065</ele>
        <time>2011-10-16T07:32:22Z</time>
      </trkpt>
      <trkpt lat="44.88141" lon="0.67242">
        <ele>124.62805</ele>
        <time>2011-10-16T07:32:27Z</time>
      </trkpt>
      <trkpt lat="44.88136" lon="0.6725">
        <ele>126.06994</ele>
        <time>2011-10-16T07:32:29Z</time>
      </trkpt>
      <trkpt lat="44.88129" lon="0.67259">
        <ele>129.43469</ele>
        <time>2011-10-16T07:32:31Z</time>
      </trkpt>
      <trkpt lat="44.88124" lon="0.67276">
        <ele>138.08654</ele>
        <time>2011-10-16T07:32:36Z</time>
      </trkpt>
      <trkpt lat="44.88122" lon="0.67287">
        <ele>137.60583</ele>
        <time>2011-10-16T07:32:40Z</time>
      </trkpt>
      <trkpt lat="44.88122" lon="0.67302">
        <ele>137.60583</ele>
        <time>2011-10-16T07:32:44Z</time>
      </trkpt>
      <trkpt lat="44.88126" lon="0.67318">
        <ele>135.6831</ele>
        <time>2011-10-16T07:32:48Z</time>
      </trkpt>
      <trkpt lat="44.88124" lon="0.67332">
        <ele>134.24121</ele>
        <time>2011-10-16T07:32:51Z</time>
      </trkpt>
      <trkpt lat="44.88119" lon="0.67357">
        <ele>133.76049</ele>
        <time>2011-10-16T07:32:57Z</time>
      </trkpt>
      <trkpt lat="44.88119" lon="0.67375">
        <ele>133.2799</ele>
        <time>2011-10-16T07:33:02Z</time>
      </trkpt>
      <trkpt lat="44.88122" lon="0.67389">
        <ele>128.9541</ele>
        <time>2011-10-16T07:33:06Z</time>
      </trkpt>
      <trkpt lat="44.88124" lon="0.67402">
        <ele>127.51196</ele>
        <time>2011-10-16T07:33:10Z</time>
      </trkpt>
      <trkpt lat="44.88131" lon="0.67416">
        <ele>125.10876</ele>
        <time>2011-10-16T07:33:14Z</time>
      </trkpt>
      <trkpt lat="44.88137" lon="0.67429">
        <ele>127.51196</ele>
        <time>2011-10-16T07:33:18Z</time>
      </trkpt>
      <trkpt lat="44.88143" lon="0.67444">
        <ele>127.03137</ele>
        <time>2011-10-16T07:33:22Z</time>
      </trkpt>
      <trkpt lat="44.88149" lon="0.67458">
        <ele>124.62805</ele>
        <time>2011-10-16T07:33:26Z</time>
      </trkpt>
      <trkpt lat="44.88154" lon="0.67478">
        <ele>126.55065</ele>
        <time>2011-10-16T07:33:32Z</time>
      </trkpt>
      <trkpt lat="44.8816" lon="0.6749">
        <ele>124.14733</ele>
        <time>2011-10-16T07:33:36Z</time>
      </trkpt>
      <trkpt lat="44.88173" lon="0.67505">
        <ele>124.14733</ele>
        <time>2011-10-16T07:33:41Z</time>
      </trkpt>
      <trkpt lat="44.88181" lon="0.67518">
        <ele>124.62805</ele>
        <time>2011-10-16T07:33:46Z</time>
      </trkpt>
      <trkpt lat="44.88182" lon="0.67534">
        <ele>128.9541</ele>
        <time>2011-10-16T07:33:50Z</time>
      </trkpt>
      <trkpt lat="44.88183" lon="0.67541">
        <ele>129.43469</ele>
        <time>2011-10-16T07:33:52Z</time>
      </trkpt>
      <trkpt lat="44.8819" lon="0.67558">
        <ele>128.47338</ele>
        <time>2011-10-16T07:33:57Z</time>
      </trkpt>
      <trkpt lat="44.88191" lon="0.67561">
        <ele>128.47338</ele>
        <time>2011-10-16T07:33:58Z</time>
      </trkpt>
      <trkpt lat="44.88199" lon="0.67572">
        <ele>127.51196</ele>
        <time>2011-10-16T07:34:02Z</time>
      </trkpt>
      <trkpt lat="44.88212" lon="0.6758">
        <ele>127.99255</ele>
        <time>2011-10-16T07:34:08Z</time>
      </trkpt>
      <trkpt lat="44.88219" lon="0.67582">
        <ele>132.3186</ele>
        <time>2011-10-16T07:34:12Z</time>
      </trkpt>
      <trkpt lat="44.88232" lon="0.67588">
        <ele>131.83789</ele>
        <time>2011-10-16T07:34:17Z</time>
      </trkpt>
      <trkpt lat="44.8824" lon="0.6759">
        <ele>128.9541</ele>
        <time>2011-10-16T07:34:20Z</time>
      </trkpt>
      <trkpt lat="44.88249" lon="0.67608">
        <ele>125.10876</ele>
        <time>2011-10-16T07:34:25Z</time>
      </trkpt>
      <trkpt lat="44.88254" lon="0.67621">
        <ele>123.18615</ele>
        <time>2011-10-16T07:34:29Z</time>
      </trkpt>
      <trkpt lat="44.88256" lon="0.67634">
        <ele>124.14733</ele>
        <time>2011-10-16T07:34:32Z</time>
      </trkpt>
      <trkpt lat="44.88268" lon="0.67648">
        <ele>126.55065</ele>
        <time>2011-10-16T07:34:37Z</time>
      </trkpt>
      <trkpt lat="44.88271" lon="0.67654">
        <ele>127.99255</ele>
        <time>2011-10-16T07:34:39Z</time>
      </trkpt>
      <trkpt lat="44.88286" lon="0.67673">
        <ele>125.10876</ele>
        <time>2011-10-16T07:34:45Z</time>
      </trkpt>
      <trkpt lat="44.88295" lon="0.6768">
        <ele>125.10876</ele>
        <time>2011-10-16T07:34:50Z</time>
      </trkpt>
      <trkpt lat="44.88308" lon="0.67688">
        <ele>127.03137</ele>
        <time>2011-10-16T07:34:55Z</time>
      </trkpt>
      <trkpt lat="44.88319" lon="0.67694">
        <ele>127.03137</ele>
        <time>2011-10-16T07:34:59Z</time>
      </trkpt>
      <trkpt lat="44.88321" lon="0.67696">
        <ele>126.55065</ele>
        <time>2011-10-16T07:35:00Z</time>
      </trkpt>
      <trkpt lat="44.88331" lon="0.677">
        <ele>126.06994</ele>
        <time>2011-10-16T07:35:04Z</time>
      </trkpt>
      <trkpt lat="44.88345" lon="0.67704">
        <ele>126.55065</ele>
        <time>2011-10-16T07:35:10Z</time>
      </trkpt>
      <trkpt lat="44.8835" lon="0.67705">
        <ele>125.58935</ele>
        <time>2011-10-16T07:35:12Z</time>
      </trkpt>
      <trkpt lat="44.8837" lon="0.6771">
        <ele>126.06994</ele>
        <time>2011-10-16T07:35:18Z</time>
      </trkpt>
      <trkpt lat="44.88384" lon="0.67721">
        <ele>126.06994</ele>
        <time>2011-10-16T07:35:24Z</time>
      </trkpt>
      <trkpt lat="44.88397" lon="0.67732">
        <ele>128.47338</ele>
        <time>2011-10-16T07:35:29Z</time>
      </trkpt>
      <trkpt lat="44.88398" lon="0.67734">
        <ele>129.91528</ele>
        <time>2011-10-16T07:35:30Z</time>
      </trkpt>
      <trkpt lat="44.8841" lon="0.67741">
        <ele>137.60583</ele>
        <time>2011-10-16T07:35:36Z</time>
      </trkpt>
      <trkpt lat="44.88414" lon="0.67743">
        <ele>137.60583</ele>
        <time>2011-10-16T07:35:38Z</time>
      </trkpt>
      <trkpt lat="44.88427" lon="0.67752">
        <ele>130.8767</ele>
        <time>2011-10-16T07:35:43Z</time>
      </trkpt>
      <trkpt lat="44.88437" lon="0.67757">
        <ele>131.35729</ele>
        <time>2011-10-16T07:35:47Z</time>
      </trkpt>
      <trkpt lat="44.88446" lon="0.67759">
        <ele>131.35729</ele>
        <time>2011-10-16T07:35:50Z</time>
      </trkpt>
      <trkpt lat="44.88462" lon="0.67767">
        <ele>135.20251</ele>
        <time>2011-10-16T07:35:57Z</time>
      </trkpt>
      <trkpt lat="44.88472" lon="0.67771">
        <ele>136.64465</ele>
        <time>2011-10-16T07:36:01Z</time>
      </trkpt>
      <trkpt lat="44.88486" lon="0.67777">
        <ele>135.6831</ele>
        <time>2011-10-16T07:36:05Z</time>
      </trkpt>
      <trkpt lat="44.88503" lon="0.67786">
        <ele>133.2799</ele>
        <time>2011-10-16T07:36:10Z</time>
      </trkpt>
      <trkpt lat="44.88511" lon="0.67796">
        <ele>132.3186</ele>
        <time>2011-10-16T07:36:14Z</time>
      </trkpt>
      <trkpt lat="44.88515" lon="0.67799">
        <ele>131.83789</ele>
        <time>2011-10-16T07:36:16Z</time>
      </trkpt>
      <trkpt lat="44.88528" lon="0.678">
        <ele>140.48986</ele>
        <time>2011-10-16T07:36:21Z</time>
      </trkpt>
      <trkpt lat="44.88533" lon="0.67803">
        <ele>141.45104</ele>
        <time>2011-10-16T07:36:23Z</time>
      </trkpt>
      <trkpt lat="44.88548" lon="0.67809">
        <ele>141.45104</ele>
        <time>2011-10-16T07:36:28Z</time>
      </trkpt>
      <trkpt lat="44.88564" lon="0.67817">
        <ele>139.04785</ele>
        <time>2011-10-16T07:36:33Z</time>
      </trkpt>
      <trkpt lat="44.88572" lon="0.67822">
        <ele>135.6831</ele>
        <time>2011-10-16T07:36:36Z</time>
      </trkpt>
      <trkpt lat="44.88584" lon="0.67833">
        <ele>136.16394</ele>
        <time>2011-10-16T07:36:41Z</time>
      </trkpt>
      <trkpt lat="44.88593" lon="0.67839">
        <ele>139.52844</ele>
        <time>2011-10-16T07:36:45Z</time>
      </trkpt>
      <trkpt lat="44.88605" lon="0.67841">
        <ele>141.93176</ele>
        <time>2011-10-16T07:36:49Z</time>
      </trkpt>
      <trkpt lat="44.88609" lon="0.67842">
        <ele>142.41247</ele>
        <time>2011-10-16T07:36:50Z</time>
      </trkpt>
      <trkpt lat="44.88627" lon="0.67852">
        <ele>139.04785</ele>
        <time>2011-10-16T07:36:56Z</time>
      </trkpt>
      <trkpt lat="44.88637" lon="0.67868">
        <ele>137.60583</ele>
        <time>2011-10-16T07:37:01Z</time>
      </trkpt>
      <trkpt lat="44.88639" lon="0.67874">
        <ele>138.08654</ele>
        <time>2011-10-16T07:37:05Z</time>
      </trkpt>
      <trkpt lat="44.88641" lon="0.6788">
        <ele>140.00915</ele>
        <time>2011-10-16T07:37:16Z</time>
      </trkpt>
      <trkpt lat="44.88654" lon="0.67882">
        <ele>137.12524</ele>
        <time>2011-10-16T07:37:22Z</time>
      </trkpt>
      <trkpt lat="44.88666" lon="0.67883">
        <ele>133.76049</ele>
        <time>2011-10-16T07:37:27Z</time>
      </trkpt>
      <trkpt lat="44.88684" lon="0.67886">
        <ele>130.8767</ele>
        <time>2011-10-16T07:37:34Z</time>
      </trkpt>
      <trkpt lat="44.88698" lon="0.67889">
        <ele>131.35729</ele>
        <time>2011-10-16T07:37:39Z</time>
      </trkpt>
      <trkpt lat="44.88716" lon="0.67894">
        <ele>132.3186</ele>
        <time>2011-10-16T07:37:45Z</time>
      </trkpt>
      <trkpt lat="44.88734" lon="0.67891">
        <ele>133.2799</ele>
        <time>2011-10-16T07:37:51Z</time>
      </trkpt>
      <trkpt lat="44.88747" lon="0.6788">
        <ele>133.76049</ele>
        <time>2011-10-16T07:37:56Z</time>
      </trkpt>
      <trkpt lat="44.88756" lon="0.67864">
        <ele>137.60583</ele>
        <time>2011-10-16T07:38:01Z</time>
      </trkpt>
      <trkpt lat="44.88764" lon="0.67853">
        <ele>139.04785</ele>
        <time>2011-10-16T07:38:05Z</time>
      </trkpt>
      <trkpt lat="44.88774" lon="0.67839">
        <ele>141.45104</ele>
        <time>2011-10-16T07:38:10Z</time>
      </trkpt>
      <trkpt lat="44.88781" lon="0.67829">
        <ele>143.37365</ele>
        <time>2011-10-16T07:38:14Z</time>
      </trkpt>
      <trkpt lat="44.88791" lon="0.67824">
        <ele>144.81579</ele>
        <time>2011-10-16T07:38:18Z</time>
      </trkpt>
      <trkpt lat="44.88801" lon="0.67821">
        <ele>147.6997</ele>
        <time>2011-10-16T07:38:22Z</time>
      </trkpt>
      <trkpt lat="44.88816" lon="0.67822">
        <ele>150.10302</ele>
        <time>2011-10-16T07:38:28Z</time>
      </trkpt>
      <trkpt lat="44.88833" lon="0.67826">
        <ele>147.6997</ele>
        <time>2011-10-16T07:38:33Z</time>
      </trkpt>
      <trkpt lat="44.88845" lon="0.67828">
        <ele>145.77709</ele>
        <time>2011-10-16T07:38:37Z</time>
      </trkpt>
      <trkpt lat="44.88861" lon="0.67829">
        <ele>140.97045</ele>
        <time>2011-10-16T07:38:42Z</time>
      </trkpt>
      <trkpt lat="44.8888" lon="0.67828">
        <ele>140.48986</ele>
        <time>2011-10-16T07:38:48Z</time>
      </trkpt>
      <trkpt lat="44.8889" lon="0.67828">
        <ele>139.52844</ele>
        <time>2011-10-16T07:38:52Z</time>
      </trkpt>
      <trkpt lat="44.88898" lon="0.67828">
        <ele>137.60583</ele>
        <time>2011-10-16T07:38:55Z</time>
      </trkpt>
      <trkpt lat="44.88912" lon="0.67828">
        <ele>136.16394</ele>
        <time>2011-10-16T07:38:59Z</time>
      </trkpt>
      <trkpt lat="44.88915" lon="0.67828">
        <ele>135.6831</ele>
        <time>2011-10-16T07:39:00Z</time>
      </trkpt>
      <trkpt lat="44.88935" lon="0.67829">
        <ele>131.83789</ele>
        <time>2011-10-16T07:39:05Z</time>
      </trkpt>
      <trkpt lat="44.88946" lon="0.67825">
        <ele>134.72192</ele>
        <time>2011-10-16T07:39:09Z</time>
      </trkpt>
      <trkpt lat="44.88957" lon="0.67824">
        <ele>138.08654</ele>
        <time>2011-10-16T07:39:14Z</time>
      </trkpt>
      <trkpt lat="44.88968" lon="0.67818">
        <ele>136.16394</ele>
        <time>2011-10-16T07:39:18Z</time>
      </trkpt>
      <trkpt lat="44.88979" lon="0.67813">
        <ele>136.16394</ele>
        <time>2011-10-16T07:39:23Z</time>
      </trkpt>
      <trkpt lat="44.8899" lon="0.67807">
        <ele>135.6831</ele>
        <time>2011-10-16T07:39:27Z</time>
      </trkpt>
      <trkpt lat="44.89001" lon="0.67802">
        <ele>134.72192</ele>
        <time>2011-10-16T07:39:31Z</time>
      </trkpt>
      <trkpt lat="44.89004" lon="0.67801">
        <ele>134.72192</ele>
        <time>2011-10-16T07:39:32Z</time>
      </trkpt>
      <trkpt lat="44.89019" lon="0.67793">
        <ele>134.24121</ele>
        <time>2011-10-16T07:39:38Z</time>
      </trkpt>
      <trkpt lat="44.89029" lon="0.67779">
        <ele>140.97045</ele>
        <time>2011-10-16T07:39:43Z</time>
      </trkpt>
      <trkpt lat="44.89043" lon="0.67768">
        <ele>140.48986</ele>
        <time>2011-10-16T07:39:48Z</time>
      </trkpt>
      <trkpt lat="44.89052" lon="0.67755">
        <ele>141.93176</ele>
        <time>2011-10-16T07:39:52Z</time>
      </trkpt>
      <trkpt lat="44.89061" lon="0.67734">
        <ele>142.41247</ele>
        <time>2011-10-16T07:39:58Z</time>
      </trkpt>
      <trkpt lat="44.89067" lon="0.67714">
        <ele>140.48986</ele>
        <time>2011-10-16T07:40:03Z</time>
      </trkpt>
      <trkpt lat="44.89072" lon="0.67696">
        <ele>139.04785</ele>
        <time>2011-10-16T07:40:08Z</time>
      </trkpt>
      <trkpt lat="44.8908" lon="0.67672">
        <ele>136.16394</ele>
        <time>2011-10-16T07:40:14Z</time>
      </trkpt>
      <trkpt lat="44.89085" lon="0.67659">
        <ele>133.2799</ele>
        <time>2011-10-16T07:40:18Z</time>
      </trkpt>
      <trkpt lat="44.89089" lon="0.67648">
        <ele>131.83789</ele>
        <time>2011-10-16T07:40:22Z</time>
      </trkpt>
      <trkpt lat="44.89096" lon="0.6763">
        <ele>132.79931</ele>
        <time>2011-10-16T07:40:28Z</time>
      </trkpt>
      <trkpt lat="44.89103" lon="0.67616">
        <ele>136.16394</ele>
        <time>2011-10-16T07:40:32Z</time>
      </trkpt>
      <trkpt lat="44.89106" lon="0.67613">
        <ele>135.6831</ele>
        <time>2011-10-16T07:40:33Z</time>
      </trkpt>
      <trkpt lat="44.89121" lon="0.676">
        <ele>137.60583</ele>
        <time>2011-10-16T07:40:39Z</time>
      </trkpt>
      <trkpt lat="44.89134" lon="0.67594">
        <ele>136.64465</ele>
        <time>2011-10-16T07:40:44Z</time>
      </trkpt>
      <trkpt lat="44.89147" lon="0.67586">
        <ele>137.12524</ele>
        <time>2011-10-16T07:40:49Z</time>
      </trkpt>
      <trkpt lat="44.89161" lon="0.67575">
        <ele>134.72192</ele>
        <time>2011-10-16T07:40:54Z</time>
      </trkpt>
      <trkpt lat="44.89173" lon="0.67566">
        <ele>132.79931</ele>
        <time>2011-10-16T07:40:58Z</time>
      </trkpt>
      <trkpt lat="44.89185" lon="0.67561">
        <ele>130.39599</ele>
        <time>2011-10-16T07:41:03Z</time>
      </trkpt>
      <trkpt lat="44.89201" lon="0.67552">
        <ele>130.8767</ele>
        <time>2011-10-16T07:41:09Z</time>
      </trkpt>
      <trkpt lat="44.89211" lon="0.67542">
        <ele>132.79931</ele>
        <time>2011-10-16T07:41:13Z</time>
      </trkpt>
      <trkpt lat="44.89227" lon="0.6753">
        <ele>134.24121</ele>
        <time>2011-10-16T07:41:19Z</time>
      </trkpt>
      <trkpt lat="44.8924" lon="0.67518">
        <ele>136.16394</ele>
        <time>2011-10-16T07:41:24Z</time>
      </trkpt>
      <trkpt lat="44.89255" lon="0.67508">
        <ele>133.76049</ele>
        <time>2011-10-16T07:41:29Z</time>
      </trkpt>
      <trkpt lat="44.89267" lon="0.675">
        <ele>131.35729</ele>
        <time>2011-10-16T07:41:34Z</time>
      </trkpt>
      <trkpt lat="44.89279" lon="0.6749">
        <ele>133.2799</ele>
        <time>2011-10-16T07:41:39Z</time>
      </trkpt>
      <trkpt lat="44.89294" lon="0.67482">
        <ele>133.2799</ele>
        <time>2011-10-16T07:41:44Z</time>
      </trkpt>
      <trkpt lat="44.89308" lon="0.67473">
        <ele>132.3186</ele>
        <time>2011-10-16T07:41:49Z</time>
      </trkpt>
      <trkpt lat="44.89323" lon="0.67465">
        <ele>129.91528</ele>
        <time>2011-10-16T07:41:55Z</time>
      </trkpt>
      <trkpt lat="44.89335" lon="0.67457">
        <ele>127.51196</ele>
        <time>2011-10-16T07:42:00Z</time>
      </trkpt>
      <trkpt lat="44.89346" lon="0.6745">
        <ele>124.14733</ele>
        <time>2011-10-16T07:42:05Z</time>
      </trkpt>
      <trkpt lat="44.8936" lon="0.67442">
        <ele>125.10876</ele>
        <time>2011-10-16T07:42:10Z</time>
      </trkpt>
      <trkpt lat="44.89374" lon="0.67435">
        <ele>124.14733</ele>
        <time>2011-10-16T07:42:15Z</time>
      </trkpt>
      <trkpt lat="44.89383" lon="0.67425">
        <ele>125.10876</ele>
        <time>2011-10-16T07:42:19Z</time>
      </trkpt>
      <trkpt lat="44.89393" lon="0.67418">
        <ele>124.62805</ele>
        <time>2011-10-16T07:42:23Z</time>
      </trkpt>
      <trkpt lat="44.89406" lon="0.67407">
        <ele>125.10876</ele>
        <time>2011-10-16T07:42:28Z</time>
      </trkpt>
      <trkpt lat="44.89417" lon="0.67399">
        <ele>129.91528</ele>
        <time>2011-10-16T07:42:32Z</time>
      </trkpt>
      <trkpt lat="44.89431" lon="0.6741">
        <ele>129.43469</ele>
        <time>2011-10-16T07:42:37Z</time>
      </trkpt>
      <trkpt lat="44.8944" lon="0.67426">
        <ele>125.10876</ele>
        <time>2011-10-16T07:42:41Z</time>
      </trkpt>
      <trkpt lat="44.89438" lon="0.67443">
        <ele>125.58935</ele>
        <time>2011-10-16T07:42:45Z</time>
      </trkpt>
      <trkpt lat="44.89436" lon="0.67461">
        <ele>127.03137</ele>
        <time>2011-10-16T07:42:49Z</time>
      </trkpt>
      <trkpt lat="44.89439" lon="0.67475">
        <ele>126.55065</ele>
        <time>2011-10-16T07:42:53Z</time>
      </trkpt>
      <trkpt lat="44.89439" lon="0.67478">
        <ele>126.06994</ele>
        <time>2011-10-16T07:42:54Z</time>
      </trkpt>
      <trkpt lat="44.89445" lon="0.67507">
        <ele>124.14733</ele>
        <time>2011-10-16T07:43:01Z</time>
      </trkpt>
      <trkpt lat="44.89449" lon="0.6752">
        <ele>121.74414</ele>
        <time>2011-10-16T07:43:04Z</time>
      </trkpt>
      <trkpt lat="44.89454" lon="0.67539">
        <ele>116.9375</ele>
        <time>2011-10-16T07:43:09Z</time>
      </trkpt>
      <trkpt lat="44.89456" lon="0.67561">
        <ele>116.45678</ele>
        <time>2011-10-16T07:43:14Z</time>
      </trkpt>
      <trkpt lat="44.89452" lon="0.67584">
        <ele>127.03137</ele>
        <time>2011-10-16T07:43:19Z</time>
      </trkpt>
      <trkpt lat="44.89453" lon="0.676">
        <ele>128.9541</ele>
        <time>2011-10-16T07:43:24Z</time>
      </trkpt>
      <trkpt lat="44.89456" lon="0.67607">
        <ele>128.9541</ele>
        <time>2011-10-16T07:43:26Z</time>
      </trkpt>
      <trkpt lat="44.89464" lon="0.67619">
        <ele>127.03137</ele>
        <time>2011-10-16T07:43:30Z</time>
      </trkpt>
      <trkpt lat="44.89477" lon="0.67633">
        <ele>121.74414</ele>
        <time>2011-10-16T07:43:35Z</time>
      </trkpt>
      <trkpt lat="44.89484" lon="0.6764">
        <ele>122.22473</ele>
        <time>2011-10-16T07:43:38Z</time>
      </trkpt>
      <trkpt lat="44.89488" lon="0.67666">
        <ele>127.99255</ele>
        <time>2011-10-16T07:43:45Z</time>
      </trkpt>
      <trkpt lat="44.89495" lon="0.67686">
        <ele>122.70544</ele>
        <time>2011-10-16T07:43:50Z</time>
      </trkpt>
      <trkpt lat="44.89503" lon="0.67703">
        <ele>119.34082</ele>
        <time>2011-10-16T07:43:55Z</time>
      </trkpt>
      <trkpt lat="44.8951" lon="0.67722">
        <ele>120.30212</ele>
        <time>2011-10-16T07:44:00Z</time>
      </trkpt>
      <trkpt lat="44.8952" lon="0.67741">
        <ele>121.74414</ele>
        <time>2011-10-16T07:44:05Z</time>
      </trkpt>
      <trkpt lat="44.89529" lon="0.6776">
        <ele>123.66674</ele>
        <time>2011-10-16T07:44:10Z</time>
      </trkpt>
      <trkpt lat="44.89534" lon="0.67773">
        <ele>125.58935</ele>
        <time>2011-10-16T07:44:14Z</time>
      </trkpt>
      <trkpt lat="44.8954" lon="0.67788">
        <ele>123.66674</ele>
        <time>2011-10-16T07:44:18Z</time>
      </trkpt>
      <trkpt lat="44.89547" lon="0.67805">
        <ele>122.70544</ele>
        <time>2011-10-16T07:44:23Z</time>
      </trkpt>
      <trkpt lat="44.89551" lon="0.67814">
        <ele>124.62805</ele>
        <time>2011-10-16T07:44:27Z</time>
      </trkpt>
      <trkpt lat="44.89554" lon="0.67832">
        <ele>127.51196</ele>
        <time>2011-10-16T07:44:32Z</time>
      </trkpt>
      <trkpt lat="44.89562" lon="0.67848">
        <ele>128.9541</ele>
        <time>2011-10-16T07:44:37Z</time>
      </trkpt>
      <trkpt lat="44.89565" lon="0.6786">
        <ele>128.9541</ele>
        <time>2011-10-16T07:44:41Z</time>
      </trkpt>
      <trkpt lat="44.89565" lon="0.67862">
        <ele>128.9541</ele>
        <time>2011-10-16T07:44:42Z</time>
      </trkpt>
      <trkpt lat="44.89575" lon="0.67878">
        <ele>126.55065</ele>
        <time>2011-10-16T07:44:47Z</time>
      </trkpt>
      <trkpt lat="44.89582" lon="0.67893">
        <ele>125.10876</ele>
        <time>2011-10-16T07:44:52Z</time>
      </trkpt>
      <trkpt lat="44.89586" lon="0.67905">
        <ele>127.03137</ele>
        <time>2011-10-16T07:44:56Z</time>
      </trkpt>
      <trkpt lat="44.89596" lon="0.67919">
        <ele>126.06994</ele>
        <time>2011-10-16T07:45:01Z</time>
      </trkpt>
      <trkpt lat="44.89608" lon="0.67934">
        <ele>124.14733</ele>
        <time>2011-10-16T07:45:06Z</time>
      </trkpt>
      <trkpt lat="44.89611" lon="0.67938">
        <ele>123.66674</ele>
        <time>2011-10-16T07:45:08Z</time>
      </trkpt>
      <trkpt lat="44.89613" lon="0.67957">
        <ele>123.18615</ele>
        <time>2011-10-16T07:45:13Z</time>
      </trkpt>
      <trkpt lat="44.89616" lon="0.67982">
        <ele>122.22473</ele>
        <time>2011-10-16T07:45:18Z</time>
      </trkpt>
      <trkpt lat="44.89619" lon="0.68012">
        <ele>117.41821</ele>
        <time>2011-10-16T07:45:24Z</time>
      </trkpt>
      <trkpt lat="44.89625" lon="0.6803">
        <ele>112.61157</ele>
        <time>2011-10-16T07:45:28Z</time>
      </trkpt>
      <trkpt lat="44.89626" lon="0.6805">
        <ele>109.24694</ele>
        <time>2011-10-16T07:45:33Z</time>
      </trkpt>
      <trkpt lat="44.89626" lon="0.68073">
        <ele>112.61157</ele>
        <time>2011-10-16T07:45:38Z</time>
      </trkpt>
      <trkpt lat="44.89625" lon="0.68093">
        <ele>114.53417</ele>
        <time>2011-10-16T07:45:43Z</time>
      </trkpt>
      <trkpt lat="44.89623" lon="0.68115">
        <ele>114.53417</ele>
        <time>2011-10-16T07:45:48Z</time>
      </trkpt>
      <trkpt lat="44.89618" lon="0.68138">
        <ele>114.53417</ele>
        <time>2011-10-16T07:45:53Z</time>
      </trkpt>
      <trkpt lat="44.89619" lon="0.68155">
        <ele>112.61157</ele>
        <time>2011-10-16T07:45:57Z</time>
      </trkpt>
      <trkpt lat="44.89615" lon="0.68175">
        <ele>114.53417</ele>
        <time>2011-10-16T07:46:03Z</time>
      </trkpt>
      <trkpt lat="44.89618" lon="0.68198">
        <ele>111.16955</ele>
        <time>2011-10-16T07:46:09Z</time>
      </trkpt>
      <trkpt lat="44.89628" lon="0.68216">
        <ele>102.0371</ele>
        <time>2011-10-16T07:46:14Z</time>
      </trkpt>
      <trkpt lat="44.89626" lon="0.68238">
        <ele>108.76623</ele>
        <time>2011-10-16T07:46:19Z</time>
      </trkpt>
      <trkpt lat="44.89625" lon="0.68262">
        <ele>113.09228</ele>
        <time>2011-10-16T07:46:25Z</time>
      </trkpt>
      <trkpt lat="44.89633" lon="0.68279">
        <ele>113.57299</ele>
        <time>2011-10-16T07:46:31Z</time>
      </trkpt>
      <trkpt lat="44.89643" lon="0.68285">
        <ele>114.53417</ele>
        <time>2011-10-16T07:46:36Z</time>
      </trkpt>
      <trkpt lat="44.89656" lon="0.68291">
        <ele>114.05358</ele>
        <time>2011-10-16T07:46:41Z</time>
      </trkpt>
      <trkpt lat="44.89668" lon="0.68296">
        <ele>112.13098</ele>
        <time>2011-10-16T07:46:46Z</time>
      </trkpt>
      <trkpt lat="44.89682" lon="0.68303">
        <ele>110.68884</ele>
        <time>2011-10-16T07:46:52Z</time>
      </trkpt>
      <trkpt lat="44.89688" lon="0.68307">
        <ele>111.16955</ele>
        <time>2011-10-16T07:46:55Z</time>
      </trkpt>
      <trkpt lat="44.89699" lon="0.68317">
        <ele>112.13098</ele>
        <time>2011-10-16T07:47:01Z</time>
      </trkpt>
      <trkpt lat="44.89718" lon="0.68324">
        <ele>112.61157</ele>
        <time>2011-10-16T07:47:08Z</time>
      </trkpt>
      <trkpt lat="44.8973" lon="0.68322">
        <ele>113.09228</ele>
        <time>2011-10-16T07:47:13Z</time>
      </trkpt>
      <trkpt lat="44.89744" lon="0.68317">
        <ele>113.57299</ele>
        <time>2011-10-16T07:47:19Z</time>
      </trkpt>
      <trkpt lat="44.89748" lon="0.68316">
        <ele>114.05358</ele>
        <time>2011-10-16T07:47:21Z</time>
      </trkpt>
      <trkpt lat="44.89751" lon="0.68317">
        <ele>117.8988</ele>
        <time>2011-10-16T07:47:27Z</time>
      </trkpt>
      <trkpt lat="44.89751" lon="0.68321">
        <ele>121.26354</ele>
        <time>2011-10-16T07:47:32Z</time>
      </trkpt>
      <trkpt lat="44.89749" lon="0.68327">
        <ele>123.18615</ele>
        <time>2011-10-16T07:47:36Z</time>
      </trkpt>
      <trkpt lat="44.89746" lon="0.68342">
        <ele>123.18615</ele>
        <time>2011-10-16T07:47:42Z</time>
      </trkpt>
      <trkpt lat="44.89744" lon="0.68354">
        <ele>125.58935</ele>
        <time>2011-10-16T07:47:46Z</time>
      </trkpt>
      <trkpt lat="44.89743" lon="0.68366">
        <ele>130.8767</ele>
        <time>2011-10-16T07:47:50Z</time>
      </trkpt>
      <trkpt lat="44.89741" lon="0.6838">
        <ele>134.72192</ele>
        <time>2011-10-16T07:47:55Z</time>
      </trkpt>
      <trkpt lat="44.89739" lon="0.68387">
        <ele>137.60583</ele>
        <time>2011-10-16T07:47:57Z</time>
      </trkpt>
      <trkpt lat="44.89736" lon="0.68407">
        <ele>136.64465</ele>
        <time>2011-10-16T07:48:04Z</time>
      </trkpt>
      <trkpt lat="44.89734" lon="0.68425">
        <ele>134.24121</ele>
        <time>2011-10-16T07:48:09Z</time>
      </trkpt>
      <trkpt lat="44.89739" lon="0.68441">
        <ele>130.39599</ele>
        <time>2011-10-16T07:48:14Z</time>
      </trkpt>
      <trkpt lat="44.89739" lon="0.68453">
        <ele>128.47338</ele>
        <time>2011-10-16T07:48:18Z</time>
      </trkpt>
      <trkpt lat="44.89738" lon="0.68468">
        <ele>130.8767</ele>
        <time>2011-10-16T07:48:23Z</time>
      </trkpt>
      <trkpt lat="44.8974" lon="0.68487">
        <ele>131.35729</ele>
        <time>2011-10-16T07:48:29Z</time>
      </trkpt>
      <trkpt lat="44.89747" lon="0.68508">
        <ele>130.39599</ele>
        <time>2011-10-16T07:48:36Z</time>
      </trkpt>
      <trkpt lat="44.8975" lon="0.68527">
        <ele>137.12524</ele>
        <time>2011-10-16T07:48:41Z</time>
      </trkpt>
      <trkpt lat="44.89754" lon="0.68544">
        <ele>141.93176</ele>
        <time>2011-10-16T07:48:46Z</time>
      </trkpt>
      <trkpt lat="44.8976" lon="0.68564">
        <ele>144.81579</ele>
        <time>2011-10-16T07:48:52Z</time>
      </trkpt>
      <trkpt lat="44.89765" lon="0.68585">
        <ele>147.21899</ele>
        <time>2011-10-16T07:48:58Z</time>
      </trkpt>
      <trkpt lat="44.89766" lon="0.68597">
        <ele>149.62231</ele>
        <time>2011-10-16T07:49:03Z</time>
      </trkpt>
      <trkpt lat="44.89766" lon="0.68599">
        <ele>150.10302</ele>
        <time>2011-10-16T07:49:16Z</time>
      </trkpt>
      <trkpt lat="44.89762" lon="0.68601">
        <ele>159.71618</ele>
        <time>2011-10-16T07:49:27Z</time>
      </trkpt>
      <trkpt lat="44.89762" lon="0.68603">
        <ele>159.23547</ele>
        <time>2011-10-16T07:49:37Z</time>
      </trkpt>
      <trkpt lat="44.8975" lon="0.68611">
        <ele>156.83215</ele>
        <time>2011-10-16T07:49:43Z</time>
      </trkpt>
      <trkpt lat="44.89749" lon="0.68613">
        <ele>156.35156</ele>
        <time>2011-10-16T07:49:44Z</time>
      </trkpt>
      <trkpt lat="44.89748" lon="0.6863">
        <ele>153.46765</ele>
        <time>2011-10-16T07:49:50Z</time>
      </trkpt>
      <trkpt lat="44.89751" lon="0.68654">
        <ele>150.58361</ele>
        <time>2011-10-16T07:49:56Z</time>
      </trkpt>
      <trkpt lat="44.89749" lon="0.68672">
        <ele>147.6997</ele>
        <time>2011-10-16T07:50:00Z</time>
      </trkpt>
      <trkpt lat="44.89745" lon="0.68689">
        <ele>145.77709</ele>
        <time>2011-10-16T07:50:05Z</time>
      </trkpt>
      <trkpt lat="44.8975" lon="0.68702">
        <ele>146.25781</ele>
        <time>2011-10-16T07:50:09Z</time>
      </trkpt>
      <trkpt lat="44.89757" lon="0.68717">
        <ele>147.6997</ele>
        <time>2011-10-16T07:50:14Z</time>
      </trkpt>
      <trkpt lat="44.89759" lon="0.68732">
        <ele>148.66101</ele>
        <time>2011-10-16T07:50:18Z</time>
      </trkpt>
      <trkpt lat="44.8976" lon="0.68742">
        <ele>149.1416</ele>
        <time>2011-10-16T07:50:21Z</time>
      </trkpt>
      <trkpt lat="44.89768" lon="0.68758">
        <ele>150.10302</ele>
        <time>2011-10-16T07:50:27Z</time>
      </trkpt>
      <trkpt lat="44.89773" lon="0.68766">
        <ele>150.58361</ele>
        <time>2011-10-16T07:50:30Z</time>
      </trkpt>
      <trkpt lat="44.89785" lon="0.68776">
        <ele>152.02575</ele>
        <time>2011-10-16T07:50:35Z</time>
      </trkpt>
      <trkpt lat="44.89796" lon="0.68783">
        <ele>152.98693</ele>
        <time>2011-10-16T07:50:39Z</time>
      </trkpt>
      <trkpt lat="44.89805" lon="0.68793">
        <ele>153.94836</ele>
        <time>2011-10-16T07:50:44Z</time>
      </trkpt>
      <trkpt lat="44.89813" lon="0.68801">
        <ele>153.46765</ele>
        <time>2011-10-16T07:50:47Z</time>
      </trkpt>
      <trkpt lat="44.8981" lon="0.68816">
        <ele>153.46765</ele>
        <time>2011-10-16T07:50:52Z</time>
      </trkpt>
      <trkpt lat="44.89799" lon="0.68838">
        <ele>154.90954</ele>
        <time>2011-10-16T07:50:59Z</time>
      </trkpt>
      <trkpt lat="44.89794" lon="0.68846">
        <ele>153.94836</ele>
        <time>2011-10-16T07:51:02Z</time>
      </trkpt>
      <trkpt lat="44.89783" lon="0.68871">
        <ele>153.46765</ele>
        <time>2011-10-16T07:51:10Z</time>
      </trkpt>
      <trkpt lat="44.89781" lon="0.68874">
        <ele>153.46765</ele>
        <time>2011-10-16T07:51:11Z</time>
      </trkpt>
      <trkpt lat="44.89778" lon="0.68898">
        <ele>150.58361</ele>
        <time>2011-10-16T07:51:17Z</time>
      </trkpt>
      <trkpt lat="44.89775" lon="0.68919">
        <ele>149.1416</ele>
        <time>2011-10-16T07:51:22Z</time>
      </trkpt>
      <trkpt lat="44.89768" lon="0.68939">
        <ele>148.18041</ele>
        <time>2011-10-16T07:51:27Z</time>
      </trkpt>
      <trkpt lat="44.89755" lon="0.68961">
        <ele>149.1416</ele>
        <time>2011-10-16T07:51:33Z</time>
      </trkpt>
      <trkpt lat="44.89748" lon="0.68977">
        <ele>150.10302</ele>
        <time>2011-10-16T07:51:37Z</time>
      </trkpt>
      <trkpt lat="44.89732" lon="0.6898">
        <ele>148.66101</ele>
        <time>2011-10-16T07:51:42Z</time>
      </trkpt>
      <trkpt lat="44.89729" lon="0.68978">
        <ele>147.6997</ele>
        <time>2011-10-16T07:51:43Z</time>
      </trkpt>
      <trkpt lat="44.89713" lon="0.68966">
        <ele>144.81579</ele>
        <time>2011-10-16T07:51:49Z</time>
      </trkpt>
      <trkpt lat="44.89699" lon="0.68956">
        <ele>144.3352</ele>
        <time>2011-10-16T07:51:54Z</time>
      </trkpt>
      <trkpt lat="44.89684" lon="0.68949">
        <ele>142.89306</ele>
        <time>2011-10-16T07:51:59Z</time>
      </trkpt>
      <trkpt lat="44.89668" lon="0.68945">
        <ele>140.97045</ele>
        <time>2011-10-16T07:52:04Z</time>
      </trkpt>
      <trkpt lat="44.89646" lon="0.68945">
        <ele>137.60583</ele>
        <time>2011-10-16T07:52:11Z</time>
      </trkpt>
      <trkpt lat="44.89637" lon="0.68948">
        <ele>135.6831</ele>
        <time>2011-10-16T07:52:14Z</time>
      </trkpt>
      <trkpt lat="44.89634" lon="0.68948">
        <ele>134.72192</ele>
        <time>2011-10-16T07:52:15Z</time>
      </trkpt>
      <trkpt lat="44.89618" lon="0.6894">
        <ele>133.76049</ele>
        <time>2011-10-16T07:52:20Z</time>
      </trkpt>
      <trkpt lat="44.89605" lon="0.6892">
        <ele>130.39599</ele>
        <time>2011-10-16T07:52:26Z</time>
      </trkpt>
      <trkpt lat="44.89602" lon="0.68914">
        <ele>131.35729</ele>
        <time>2011-10-16T07:52:30Z</time>
      </trkpt>
      <trkpt lat="44.89599" lon="0.68908">
        <ele>130.8767</ele>
        <time>2011-10-16T07:52:36Z</time>
      </trkpt>
      <trkpt lat="44.89589" lon="0.68891">
        <ele>129.91528</ele>
        <time>2011-10-16T07:52:41Z</time>
      </trkpt>
      <trkpt lat="44.89574" lon="0.68871">
        <ele>129.91528</ele>
        <time>2011-10-16T07:52:47Z</time>
      </trkpt>
      <trkpt lat="44.89556" lon="0.68857">
        <ele>129.91528</ele>
        <time>2011-10-16T07:52:54Z</time>
      </trkpt>
      <trkpt lat="44.89543" lon="0.68851">
        <ele>130.8767</ele>
        <time>2011-10-16T07:52:59Z</time>
      </trkpt>
      <trkpt lat="44.89531" lon="0.6884">
        <ele>129.43469</ele>
        <time>2011-10-16T07:53:04Z</time>
      </trkpt>
      <trkpt lat="44.8952" lon="0.68826">
        <ele>128.47338</ele>
        <time>2011-10-16T07:53:09Z</time>
      </trkpt>
      <trkpt lat="44.89508" lon="0.6881">
        <ele>124.62805</ele>
        <time>2011-10-16T07:53:14Z</time>
      </trkpt>
      <trkpt lat="44.89496" lon="0.68794">
        <ele>125.10876</ele>
        <time>2011-10-16T07:53:19Z</time>
      </trkpt>
      <trkpt lat="44.89477" lon="0.68779">
        <ele>128.47338</ele>
        <time>2011-10-16T07:53:25Z</time>
      </trkpt>
      <trkpt lat="44.89459" lon="0.68773">
        <ele>128.9541</ele>
        <time>2011-10-16T07:53:30Z</time>
      </trkpt>
      <trkpt lat="44.89446" lon="0.68766">
        <ele>126.06994</ele>
        <time>2011-10-16T07:53:34Z</time>
      </trkpt>
      <trkpt lat="44.89435" lon="0.68748">
        <ele>122.22473</ele>
        <time>2011-10-16T07:53:39Z</time>
      </trkpt>
      <trkpt lat="44.8943" lon="0.68726">
        <ele>116.45678</ele>
        <time>2011-10-16T07:53:44Z</time>
      </trkpt>
      <trkpt lat="44.89423" lon="0.68711">
        <ele>115.97619</ele>
        <time>2011-10-16T07:53:48Z</time>
      </trkpt>
      <trkpt lat="44.89419" lon="0.68689">
        <ele>113.09228</ele>
        <time>2011-10-16T07:53:53Z</time>
      </trkpt>
      <trkpt lat="44.89415" lon="0.68665">
        <ele>112.61157</ele>
        <time>2011-10-16T07:53:58Z</time>
      </trkpt>
      <trkpt lat="44.89412" lon="0.68642">
        <ele>112.13098</ele>
        <time>2011-10-16T07:54:03Z</time>
      </trkpt>
      <trkpt lat="44.8941" lon="0.68621">
        <ele>111.16955</ele>
        <time>2011-10-16T07:54:08Z</time>
      </trkpt>
      <trkpt lat="44.89407" lon="0.68604">
        <ele>111.65026</ele>
        <time>2011-10-16T07:54:12Z</time>
      </trkpt>
      <trkpt lat="44.89399" lon="0.68586">
        <ele>111.16955</ele>
        <time>2011-10-16T07:54:17Z</time>
      </trkpt>
      <trkpt lat="44.89388" lon="0.68581">
        <ele>110.20825</ele>
        <time>2011-10-16T07:54:21Z</time>
      </trkpt>
      <trkpt lat="44.89372" lon="0.68581">
        <ele>111.16955</ele>
        <time>2011-10-16T07:54:26Z</time>
      </trkpt>
      <trkpt lat="44.89358" lon="0.68581">
        <ele>111.16955</ele>
        <time>2011-10-16T07:54:31Z</time>
      </trkpt>
      <trkpt lat="44.89345" lon="0.68582">
        <ele>111.65026</ele>
        <time>2011-10-16T07:54:35Z</time>
      </trkpt>
      <trkpt lat="44.89328" lon="0.68581">
        <ele>111.16955</ele>
        <time>2011-10-16T07:54:41Z</time>
      </trkpt>
      <trkpt lat="44.89316" lon="0.68582">
        <ele>111.16955</ele>
        <time>2011-10-16T07:54:46Z</time>
      </trkpt>
      <trkpt lat="44.893" lon="0.68587">
        <ele>111.16955</ele>
        <time>2011-10-16T07:54:52Z</time>
      </trkpt>
      <trkpt lat="44.89284" lon="0.68594">
        <ele>109.72766</ele>
        <time>2011-10-16T07:55:00Z</time>
      </trkpt>
      <trkpt lat="44.89275" lon="0.68596">
        <ele>111.65026</ele>
        <time>2011-10-16T07:55:04Z</time>
      </trkpt>
      <trkpt lat="44.89261" lon="0.68602">
        <ele>116.9375</ele>
        <time>2011-10-16T07:55:10Z</time>
      </trkpt>
      <trkpt lat="44.89243" lon="0.68608">
        <ele>124.62805</ele>
        <time>2011-10-16T07:55:17Z</time>
      </trkpt>
      <trkpt lat="44.89234" lon="0.68608">
        <ele>127.51196</ele>
        <time>2011-10-16T07:55:21Z</time>
      </trkpt>
      <trkpt lat="44.89224" lon="0.68609">
        <ele>128.47338</ele>
        <time>2011-10-16T07:55:25Z</time>
      </trkpt>
      <trkpt lat="44.89218" lon="0.6861">
        <ele>128.9541</ele>
        <time>2011-10-16T07:55:27Z</time>
      </trkpt>
      <trkpt lat="44.892" lon="0.68611">
        <ele>128.47338</ele>
        <time>2011-10-16T07:55:35Z</time>
      </trkpt>
      <trkpt lat="44.89198" lon="0.68612">
        <ele>128.9541</ele>
        <time>2011-10-16T07:55:36Z</time>
      </trkpt>
      <trkpt lat="44.89192" lon="0.68624">
        <ele>128.9541</ele>
        <time>2011-10-16T07:55:40Z</time>
      </trkpt>
      <trkpt lat="44.89182" lon="0.68647">
        <ele>129.43469</ele>
        <time>2011-10-16T07:55:47Z</time>
      </trkpt>
      <trkpt lat="44.89174" lon="0.6866">
        <ele>131.35729</ele>
        <time>2011-10-16T07:55:53Z</time>
      </trkpt>
      <trkpt lat="44.89166" lon="0.68668">
        <ele>131.83789</ele>
        <time>2011-10-16T07:55:59Z</time>
      </trkpt>
      <trkpt lat="44.89164" lon="0.68668">
        <ele>130.8767</ele>
        <time>2011-10-16T07:56:05Z</time>
      </trkpt>
      <trkpt lat="44.89161" lon="0.68668">
        <ele>134.72192</ele>
        <time>2011-10-16T07:56:13Z</time>
      </trkpt>
      <trkpt lat="44.89159" lon="0.6867">
        <ele>140.00915</ele>
        <time>2011-10-16T07:56:23Z</time>
      </trkpt>
      <trkpt lat="44.89158" lon="0.68679">
        <ele>137.12524</ele>
        <time>2011-10-16T07:56:31Z</time>
      </trkpt>
      <trkpt lat="44.8915" lon="0.68705">
        <ele>134.72192</ele>
        <time>2011-10-16T07:56:38Z</time>
      </trkpt>
      <trkpt lat="44.89146" lon="0.68724">
        <ele>132.79931</ele>
        <time>2011-10-16T07:56:43Z</time>
      </trkpt>
      <trkpt lat="44.89142" lon="0.68737">
        <ele>131.35729</ele>
        <time>2011-10-16T07:56:47Z</time>
      </trkpt>
      <trkpt lat="44.8914" lon="0.6875">
        <ele>130.8767</ele>
        <time>2011-10-16T07:56:51Z</time>
      </trkpt>
      <trkpt lat="44.8914" lon="0.68753">
        <ele>130.8767</ele>
        <time>2011-10-16T07:56:52Z</time>
      </trkpt>
      <trkpt lat="44.89138" lon="0.68761">
        <ele>130.8767</ele>
        <time>2011-10-16T07:56:54Z</time>
      </trkpt>
      <trkpt lat="44.89133" lon="0.68782">
        <ele>131.35729</ele>
        <time>2011-10-16T07:57:00Z</time>
      </trkpt>
      <trkpt lat="44.89129" lon="0.68799">
        <ele>132.3186</ele>
        <time>2011-10-16T07:57:05Z</time>
      </trkpt>
      <trkpt lat="44.89125" lon="0.68817">
        <ele>134.24121</ele>
        <time>2011-10-16T07:57:11Z</time>
      </trkpt>
      <trkpt lat="44.8912" lon="0.68833">
        <ele>135.6831</ele>
        <time>2011-10-16T07:57:16Z</time>
      </trkpt>
      <trkpt lat="44.89115" lon="0.68847">
        <ele>136.64465</ele>
        <time>2011-10-16T07:57:21Z</time>
      </trkpt>
      <trkpt lat="44.89108" lon="0.68867">
        <ele>138.08654</ele>
        <time>2011-10-16T07:57:27Z</time>
      </trkpt>
      <trkpt lat="44.89104" lon="0.68883">
        <ele>137.60583</ele>
        <time>2011-10-16T07:57:32Z</time>
      </trkpt>
      <trkpt lat="44.89098" lon="0.68894">
        <ele>137.60583</ele>
        <time>2011-10-16T07:57:36Z</time>
      </trkpt>
      <trkpt lat="44.8909" lon="0.68908">
        <ele>136.16394</ele>
        <time>2011-10-16T07:57:41Z</time>
      </trkpt>
      <trkpt lat="44.89079" lon="0.68922">
        <ele>137.12524</ele>
        <time>2011-10-16T07:57:47Z</time>
      </trkpt>
      <trkpt lat="44.89069" lon="0.68935">
        <ele>138.08654</ele>
        <time>2011-10-16T07:57:52Z</time>
      </trkpt>
      <trkpt lat="44.8906" lon="0.68949">
        <ele>139.04785</ele>
        <time>2011-10-16T07:57:57Z</time>
      </trkpt>
      <trkpt lat="44.89048" lon="0.68967">
        <ele>140.00915</ele>
        <time>2011-10-16T07:58:03Z</time>
      </trkpt>
      <trkpt lat="44.89047" lon="0.68969">
        <ele>140.00915</ele>
        <time>2011-10-16T07:58:04Z</time>
      </trkpt>
      <trkpt lat="44.89046" lon="0.68977">
        <ele>139.04785</ele>
        <time>2011-10-16T07:58:09Z</time>
      </trkpt>
      <trkpt lat="44.89046" lon="0.68978">
        <ele>140.48986</ele>
        <time>2011-10-16T07:58:19Z</time>
      </trkpt>
      <trkpt lat="44.89045" lon="0.68981">
        <ele>137.60583</ele>
        <time>2011-10-16T07:58:37Z</time>
      </trkpt>
      <trkpt lat="44.89046" lon="0.6898">
        <ele>136.64465</ele>
        <time>2011-10-16T07:58:44Z</time>
      </trkpt>
      <trkpt lat="44.89047" lon="0.68984">
        <ele>138.08654</ele>
        <time>2011-10-16T07:58:50Z</time>
      </trkpt>
      <trkpt lat="44.89046" lon="0.68985">
        <ele>138.56726</ele>
        <time>2011-10-16T07:58:56Z</time>
      </trkpt>
      <trkpt lat="44.89047" lon="0.68994">
        <ele>139.04785</ele>
        <time>2011-10-16T07:59:02Z</time>
      </trkpt>
      <trkpt lat="44.8905" lon="0.69004">
        <ele>139.04785</ele>
        <time>2011-10-16T07:59:07Z</time>
      </trkpt>
      <trkpt lat="44.89047" lon="0.69024">
        <ele>138.56726</ele>
        <time>2011-10-16T07:59:14Z</time>
      </trkpt>
      <trkpt lat="44.89041" lon="0.69038">
        <ele>138.08654</ele>
        <time>2011-10-16T07:59:18Z</time>
      </trkpt>
      <trkpt lat="44.89038" lon="0.69054">
        <ele>137.12524</ele>
        <time>2011-10-16T07:59:22Z</time>
      </trkpt>
      <trkpt lat="44.89037" lon="0.6907">
        <ele>135.6831</ele>
        <time>2011-10-16T07:59:27Z</time>
      </trkpt>
      <trkpt lat="44.89032" lon="0.69089">
        <ele>136.16394</ele>
        <time>2011-10-16T07:59:32Z</time>
      </trkpt>
      <trkpt lat="44.89026" lon="0.69109">
        <ele>134.24121</ele>
        <time>2011-10-16T07:59:37Z</time>
      </trkpt>
      <trkpt lat="44.89025" lon="0.69122">
        <ele>132.3186</ele>
        <time>2011-10-16T07:59:41Z</time>
      </trkpt>
      <trkpt lat="44.89027" lon="0.69147">
        <ele>127.99255</ele>
        <time>2011-10-16T07:59:47Z</time>
      </trkpt>
      <trkpt lat="44.89026" lon="0.69169">
        <ele>126.06994</ele>
        <time>2011-10-16T07:59:52Z</time>
      </trkpt>
      <trkpt lat="44.89022" lon="0.69189">
        <ele>127.51196</ele>
        <time>2011-10-16T07:59:57Z</time>
      </trkpt>
      <trkpt lat="44.89021" lon="0.69202">
        <ele>128.47338</ele>
        <time>2011-10-16T08:00:01Z</time>
      </trkpt>
      <trkpt lat="44.89017" lon="0.69216">
        <ele>127.03137</ele>
        <time>2011-10-16T08:00:05Z</time>
      </trkpt>
      <trkpt lat="44.89016" lon="0.69241">
        <ele>128.47338</ele>
        <time>2011-10-16T08:00:11Z</time>
      </trkpt>
      <trkpt lat="44.89015" lon="0.69257">
        <ele>129.43469</ele>
        <time>2011-10-16T08:00:15Z</time>
      </trkpt>
      <trkpt lat="44.89015" lon="0.69262">
        <ele>129.43469</ele>
        <time>2011-10-16T08:00:16Z</time>
      </trkpt>
      <trkpt lat="44.89015" lon="0.69275">
        <ele>132.3186</ele>
        <time>2011-10-16T08:00:19Z</time>
      </trkpt>
      <trkpt lat="44.89007" lon="0.69281">
        <ele>135.6831</ele>
        <time>2011-10-16T08:00:25Z</time>
      </trkpt>
      <trkpt lat="44.88997" lon="0.69277">
        <ele>135.6831</ele>
        <time>2011-10-16T08:00:30Z</time>
      </trkpt>
      <trkpt lat="44.88981" lon="0.69273">
        <ele>131.35729</ele>
        <time>2011-10-16T08:00:37Z</time>
      </trkpt>
      <trkpt lat="44.88969" lon="0.69269">
        <ele>129.43469</ele>
        <time>2011-10-16T08:00:43Z</time>
      </trkpt>
      <trkpt lat="44.88958" lon="0.69266">
        <ele>126.55065</ele>
        <time>2011-10-16T08:00:48Z</time>
      </trkpt>
      <trkpt lat="44.88947" lon="0.69265">
        <ele>128.9541</ele>
        <time>2011-10-16T08:00:53Z</time>
      </trkpt>
      <trkpt lat="44.88933" lon="0.69271">
        <ele>132.3186</ele>
        <time>2011-10-16T08:01:00Z</time>
      </trkpt>
      <trkpt lat="44.8892" lon="0.69275">
        <ele>132.3186</ele>
        <time>2011-10-16T08:01:05Z</time>
      </trkpt>
      <trkpt lat="44.88905" lon="0.69276">
        <ele>133.76049</ele>
        <time>2011-10-16T08:01:11Z</time>
      </trkpt>
      <trkpt lat="44.88902" lon="0.69276">
        <ele>133.2799</ele>
        <time>2011-10-16T08:01:12Z</time>
      </trkpt>
      <trkpt lat="44.88886" lon="0.6928">
        <ele>135.20251</ele>
        <time>2011-10-16T08:01:18Z</time>
      </trkpt>
      <trkpt lat="44.88869" lon="0.69284">
        <ele>136.16394</ele>
        <time>2011-10-16T08:01:24Z</time>
      </trkpt>
      <trkpt lat="44.88855" lon="0.69289">
        <ele>138.56726</ele>
        <time>2011-10-16T08:01:29Z</time>
      </trkpt>
      <trkpt lat="44.88841" lon="0.69293">
        <ele>138.08654</ele>
        <time>2011-10-16T08:01:34Z</time>
      </trkpt>
      <trkpt lat="44.88829" lon="0.69299">
        <ele>138.08654</ele>
        <time>2011-10-16T08:01:39Z</time>
      </trkpt>
      <trkpt lat="44.88815" lon="0.69313">
        <ele>146.7384</ele>
        <time>2011-10-16T08:01:44Z</time>
      </trkpt>
      <trkpt lat="44.88804" lon="0.69324">
        <ele>146.7384</ele>
        <time>2011-10-16T08:01:49Z</time>
      </trkpt>
      <trkpt lat="44.88794" lon="0.69335">
        <ele>147.21899</ele>
        <time>2011-10-16T08:01:53Z</time>
      </trkpt>
      <trkpt lat="44.88778" lon="0.69357">
        <ele>151.0642</ele>
        <time>2011-10-16T08:02:01Z</time>
      </trkpt>
      <trkpt lat="44.88767" lon="0.69373">
        <ele>150.58361</ele>
        <time>2011-10-16T08:02:07Z</time>
      </trkpt>
      <trkpt lat="44.88765" lon="0.69376">
        <ele>151.0642</ele>
        <time>2011-10-16T08:02:08Z</time>
      </trkpt>
      <trkpt lat="44.88762" lon="0.69384">
        <ele>150.10302</ele>
        <time>2011-10-16T08:02:13Z</time>
      </trkpt>
      <trkpt lat="44.8876" lon="0.69388">
        <ele>149.1416</ele>
        <time>2011-10-16T08:02:18Z</time>
      </trkpt>
      <trkpt lat="44.8876" lon="0.69388">
        <ele>149.1416</ele>
        <time>2011-10-16T08:02:24Z</time>
      </trkpt>
      <trkpt lat="44.88759" lon="0.69389">
        <ele>149.1416</ele>
        <time>2011-10-16T08:02:25Z</time>
      </trkpt>
      <trkpt lat="44.88752" lon="0.69396">
        <ele>148.66101</ele>
        <time>2011-10-16T08:02:29Z</time>
      </trkpt>
      <trkpt lat="44.88742" lon="0.69407">
        <ele>149.1416</ele>
        <time>2011-10-16T08:02:34Z</time>
      </trkpt>
      <trkpt lat="44.88736" lon="0.69417">
        <ele>149.1416</ele>
        <time>2011-10-16T08:02:38Z</time>
      </trkpt>
      <trkpt lat="44.88727" lon="0.69431">
        <ele>149.1416</ele>
        <time>2011-10-16T08:02:43Z</time>
      </trkpt>
      <trkpt lat="44.88718" lon="0.69445">
        <ele>147.6997</ele>
        <time>2011-10-16T08:02:48Z</time>
      </trkpt>
      <trkpt lat="44.88709" lon="0.69459">
        <ele>147.21899</ele>
        <time>2011-10-16T08:02:53Z</time>
      </trkpt>
      <trkpt lat="44.88696" lon="0.69476">
        <ele>148.66101</ele>
        <time>2011-10-16T08:02:59Z</time>
      </trkpt>
      <trkpt lat="44.88687" lon="0.69491">
        <ele>148.66101</ele>
        <time>2011-10-16T08:03:04Z</time>
      </trkpt>
      <trkpt lat="44.88684" lon="0.69506">
        <ele>149.62231</ele>
        <time>2011-10-16T08:03:08Z</time>
      </trkpt>
      <trkpt lat="44.88684" lon="0.6953">
        <ele>150.58361</ele>
        <time>2011-10-16T08:03:14Z</time>
      </trkpt>
      <trkpt lat="44.88684" lon="0.69546">
        <ele>151.54492</ele>
        <time>2011-10-16T08:03:18Z</time>
      </trkpt>
      <trkpt lat="44.88686" lon="0.69562">
        <ele>150.10302</ele>
        <time>2011-10-16T08:03:22Z</time>
      </trkpt>
      <trkpt lat="44.88688" lon="0.69571">
        <ele>150.10302</ele>
        <time>2011-10-16T08:03:25Z</time>
      </trkpt>
      <trkpt lat="44.88677" lon="0.69588">
        <ele>151.54492</ele>
        <time>2011-10-16T08:03:31Z</time>
      </trkpt>
      <trkpt lat="44.88662" lon="0.69602">
        <ele>156.83215</ele>
        <time>2011-10-16T08:03:37Z</time>
      </trkpt>
      <trkpt lat="44.8866" lon="0.69603">
        <ele>157.31286</ele>
        <time>2011-10-16T08:03:38Z</time>
      </trkpt>
      <trkpt lat="44.8865" lon="0.69603">
        <ele>157.31286</ele>
        <time>2011-10-16T08:03:42Z</time>
      </trkpt>
      <trkpt lat="44.88637" lon="0.69595">
        <ele>159.23547</ele>
        <time>2011-10-16T08:03:47Z</time>
      </trkpt>
      <trkpt lat="44.88625" lon="0.69575">
        <ele>154.90954</ele>
        <time>2011-10-16T08:03:54Z</time>
      </trkpt>
      <trkpt lat="44.88616" lon="0.69552">
        <ele>150.10302</ele>
        <time>2011-10-16T08:04:00Z</time>
      </trkpt>
      <trkpt lat="44.88607" lon="0.69536">
        <ele>145.77709</ele>
        <time>2011-10-16T08:04:05Z</time>
      </trkpt>
      <trkpt lat="44.88594" lon="0.69523">
        <ele>144.81579</ele>
        <time>2011-10-16T08:04:10Z</time>
      </trkpt>
      <trkpt lat="44.88579" lon="0.69505">
        <ele>142.89306</ele>
        <time>2011-10-16T08:04:17Z</time>
      </trkpt>
      <trkpt lat="44.88567" lon="0.69497">
        <ele>140.48986</ele>
        <time>2011-10-16T08:04:22Z</time>
      </trkpt>
      <trkpt lat="44.88551" lon="0.69491">
        <ele>144.3352</ele>
        <time>2011-10-16T08:04:28Z</time>
      </trkpt>
      <trkpt lat="44.88535" lon="0.69491">
        <ele>145.29638</ele>
        <time>2011-10-16T08:04:34Z</time>
      </trkpt>
      <trkpt lat="44.88521" lon="0.69494">
        <ele>145.29638</ele>
        <time>2011-10-16T08:04:39Z</time>
      </trkpt>
      <trkpt lat="44.88508" lon="0.69494">
        <ele>144.81579</ele>
        <time>2011-10-16T08:04:43Z</time>
      </trkpt>
      <trkpt lat="44.88494" lon="0.69495">
        <ele>147.6997</ele>
        <time>2011-10-16T08:04:48Z</time>
      </trkpt>
      <trkpt lat="44.88478" lon="0.69497">
        <ele>147.21899</ele>
        <time>2011-10-16T08:04:53Z</time>
      </trkpt>
      <trkpt lat="44.88457" lon="0.69498">
        <ele>146.25781</ele>
        <time>2011-10-16T08:04:59Z</time>
      </trkpt>
      <trkpt lat="44.88446" lon="0.69498">
        <ele>142.41247</ele>
        <time>2011-10-16T08:05:03Z</time>
      </trkpt>
      <trkpt lat="44.88431" lon="0.69499">
        <ele>138.08654</ele>
        <time>2011-10-16T08:05:08Z</time>
      </trkpt>
      <trkpt lat="44.88418" lon="0.69499">
        <ele>138.56726</ele>
        <time>2011-10-16T08:05:12Z</time>
      </trkpt>
      <trkpt lat="44.88403" lon="0.69504">
        <ele>137.12524</ele>
        <time>2011-10-16T08:05:17Z</time>
      </trkpt>
      <trkpt lat="44.88389" lon="0.69507">
        <ele>133.76049</ele>
        <time>2011-10-16T08:05:22Z</time>
      </trkpt>
      <trkpt lat="44.88377" lon="0.69509">
        <ele>133.2799</ele>
        <time>2011-10-16T08:05:26Z</time>
      </trkpt>
      <trkpt lat="44.88363" lon="0.6951">
        <ele>134.72192</ele>
        <time>2011-10-16T08:05:31Z</time>
      </trkpt>
      <trkpt lat="44.8835" lon="0.69513">
        <ele>136.16394</ele>
        <time>2011-10-16T08:05:36Z</time>
      </trkpt>
      <trkpt lat="44.88334" lon="0.69517">
        <ele>137.60583</ele>
        <time>2011-10-16T08:05:41Z</time>
      </trkpt>
      <trkpt lat="44.88319" lon="0.69522">
        <ele>139.52844</ele>
        <time>2011-10-16T08:05:46Z</time>
      </trkpt>
      <trkpt lat="44.88308" lon="0.69521">
        <ele>138.56726</ele>
        <time>2011-10-16T08:05:50Z</time>
      </trkpt>
      <trkpt lat="44.88293" lon="0.69522">
        <ele>139.52844</ele>
        <time>2011-10-16T08:05:55Z</time>
      </trkpt>
      <trkpt lat="44.88277" lon="0.69524">
        <ele>141.45104</ele>
        <time>2011-10-16T08:06:00Z</time>
      </trkpt>
      <trkpt lat="44.88263" lon="0.69525">
        <ele>141.45104</ele>
        <time>2011-10-16T08:06:05Z</time>
      </trkpt>
      <trkpt lat="44.88246" lon="0.69528">
        <ele>141.45104</ele>
        <time>2011-10-16T08:06:11Z</time>
      </trkpt>
      <trkpt lat="44.88234" lon="0.6953">
        <ele>141.45104</ele>
        <time>2011-10-16T08:06:15Z</time>
      </trkpt>
      <trkpt lat="44.88224" lon="0.69529">
        <ele>139.04785</ele>
        <time>2011-10-16T08:06:19Z</time>
      </trkpt>
      <trkpt lat="44.88209" lon="0.69529">
        <ele>136.64465</ele>
        <time>2011-10-16T08:06:24Z</time>
      </trkpt>
      <trkpt lat="44.882" lon="0.69528">
        <ele>135.6831</ele>
        <time>2011-10-16T08:06:28Z</time>
      </trkpt>
      <trkpt lat="44.88187" lon="0.69525">
        <ele>134.72192</ele>
        <time>2011-10-16T08:06:32Z</time>
      </trkpt>
      <trkpt lat="44.88184" lon="0.69526">
        <ele>137.12524</ele>
        <time>2011-10-16T08:06:33Z</time>
      </trkpt>
      <trkpt lat="44.88165" lon="0.69532">
        <ele>139.04785</ele>
        <time>2011-10-16T08:06:39Z</time>
      </trkpt>
      <trkpt lat="44.88149" lon="0.6954">
        <ele>137.60583</ele>
        <time>2011-10-16T08:06:45Z</time>
      </trkpt>
      <trkpt lat="44.88137" lon="0.69546">
        <ele>136.64465</ele>
        <time>2011-10-16T08:06:49Z</time>
      </trkpt>
      <trkpt lat="44.88123" lon="0.69553">
        <ele>135.6831</ele>
        <time>2011-10-16T08:06:54Z</time>
      </trkpt>
      <trkpt lat="44.88107" lon="0.69557">
        <ele>133.76049</ele>
        <time>2011-10-16T08:06:59Z</time>
      </trkpt>
      <trkpt lat="44.88091" lon="0.69552">
        <ele>135.20251</ele>
        <time>2011-10-16T08:07:04Z</time>
      </trkpt>
      <trkpt lat="44.8808" lon="0.69543">
        <ele>133.76049</ele>
        <time>2011-10-16T08:07:08Z</time>
      </trkpt>
      <trkpt lat="44.88067" lon="0.69538">
        <ele>132.3186</ele>
        <time>2011-10-16T08:07:13Z</time>
      </trkpt>
      <trkpt lat="44.88051" lon="0.69537">
        <ele>131.35729</ele>
        <time>2011-10-16T08:07:18Z</time>
      </trkpt>
      <trkpt lat="44.88039" lon="0.69534">
        <ele>128.47338</ele>
        <time>2011-10-16T08:07:22Z</time>
      </trkpt>
      <trkpt lat="44.88018" lon="0.69532">
        <ele>125.58935</ele>
        <time>2011-10-16T08:07:29Z</time>
      </trkpt>
      <trkpt lat="44.88015" lon="0.6953">
        <ele>125.10876</ele>
        <time>2011-10-16T08:07:30Z</time>
      </trkpt>
      <trkpt lat="44.87995" lon="0.69529">
        <ele>121.74414</ele>
        <time>2011-10-16T08:07:36Z</time>
      </trkpt>
      <trkpt lat="44.87977" lon="0.6953">
        <ele>119.34082</ele>
        <time>2011-10-16T08:07:41Z</time>
      </trkpt>
      <trkpt lat="44.87969" lon="0.69527">
        <ele>116.9375</ele>
        <time>2011-10-16T08:07:45Z</time>
      </trkpt>
      <trkpt lat="44.87959" lon="0.69522">
        <ele>116.45678</ele>
        <time>2011-10-16T08:07:49Z</time>
      </trkpt>
      <trkpt lat="44.87953" lon="0.69519">
        <ele>116.9375</ele>
        <time>2011-10-16T08:07:52Z</time>
      </trkpt>
      <trkpt lat="44.87946" lon="0.69515">
        <ele>116.9375</ele>
        <time>2011-10-16T08:07:55Z</time>
      </trkpt>
      <trkpt lat="44.87928" lon="0.69523">
        <ele>124.62805</ele>
        <time>2011-10-16T08:08:01Z</time>
      </trkpt>
      <trkpt lat="44.87916" lon="0.69527">
        <ele>124.62805</ele>
        <time>2011-10-16T08:08:06Z</time>
      </trkpt>
      <trkpt lat="44.87913" lon="0.69527">
        <ele>124.14733</ele>
        <time>2011-10-16T08:08:07Z</time>
      </trkpt>
      <trkpt lat="44.879" lon="0.69527">
        <ele>123.66674</ele>
        <time>2011-10-16T08:08:12Z</time>
      </trkpt>
      <trkpt lat="44.87888" lon="0.69529">
        <ele>122.22473</ele>
        <time>2011-10-16T08:08:16Z</time>
      </trkpt>
      <trkpt lat="44.87872" lon="0.69536">
        <ele>120.78283</ele>
        <time>2011-10-16T08:08:22Z</time>
      </trkpt>
      <trkpt lat="44.87862" lon="0.69536">
        <ele>116.9375</ele>
        <time>2011-10-16T08:08:26Z</time>
      </trkpt>
      <trkpt lat="44.87845" lon="0.69545">
        <ele>118.37939</ele>
        <time>2011-10-16T08:08:32Z</time>
      </trkpt>
      <trkpt lat="44.87828" lon="0.69545">
        <ele>112.13098</ele>
        <time>2011-10-16T08:08:38Z</time>
      </trkpt>
      <trkpt lat="44.87813" lon="0.69544">
        <ele>107.32434</ele>
        <time>2011-10-16T08:08:43Z</time>
      </trkpt>
      <trkpt lat="44.87807" lon="0.69542">
        <ele>104.44042</ele>
        <time>2011-10-16T08:08:45Z</time>
      </trkpt>
      <trkpt lat="44.87798" lon="0.6954">
        <ele>102.0371</ele>
        <time>2011-10-16T08:08:48Z</time>
      </trkpt>
      <trkpt lat="44.8779" lon="0.69543">
        <ele>99.153076</ele>
        <time>2011-10-16T08:08:51Z</time>
      </trkpt>
      <trkpt lat="44.87787" lon="0.69543">
        <ele>98.672485</ele>
        <time>2011-10-16T08:08:53Z</time>
      </trkpt>
      <trkpt lat="44.87784" lon="0.69546">
        <ele>99.633789</ele>
        <time>2011-10-16T08:08:59Z</time>
      </trkpt>
      <trkpt lat="44.87773" lon="0.69551">
        <ele>99.633789</ele>
        <time>2011-10-16T08:09:03Z</time>
      </trkpt>
      <trkpt lat="44.87763" lon="0.69544">
        <ele>96.749877</ele>
        <time>2011-10-16T08:09:08Z</time>
      </trkpt>
      <trkpt lat="44.87756" lon="0.69533">
        <ele>96.269287</ele>
        <time>2011-10-16T08:09:12Z</time>
      </trkpt>
      <trkpt lat="44.87748" lon="0.69526">
        <ele>95.788452</ele>
        <time>2011-10-16T08:09:16Z</time>
      </trkpt>
      <trkpt lat="44.87742" lon="0.69516">
        <ele>96.749877</ele>
        <time>2011-10-16T08:09:19Z</time>
      </trkpt>
      <trkpt lat="44.87728" lon="0.69496">
        <ele>97.230468</ele>
        <time>2011-10-16T08:09:26Z</time>
      </trkpt>
      <trkpt lat="44.87717" lon="0.69477">
        <ele>97.711181</ele>
        <time>2011-10-16T08:09:32Z</time>
      </trkpt>
      <trkpt lat="44.8771" lon="0.69456">
        <ele>97.711181</ele>
        <time>2011-10-16T08:09:38Z</time>
      </trkpt>
      <trkpt lat="44.87707" lon="0.69436">
        <ele>97.230468</ele>
        <time>2011-10-16T08:09:43Z</time>
      </trkpt>
      <trkpt lat="44.87702" lon="0.69419">
        <ele>97.230468</ele>
        <time>2011-10-16T08:09:48Z</time>
      </trkpt>
      <trkpt lat="44.87698" lon="0.69403">
        <ele>97.230468</ele>
        <time>2011-10-16T08:09:53Z</time>
      </trkpt>
      <trkpt lat="44.87691" lon="0.69395">
        <ele>97.230468</ele>
        <time>2011-10-16T08:09:57Z</time>
      </trkpt>
      <trkpt lat="44.87682" lon="0.69378">
        <ele>98.672485</ele>
        <time>2011-10-16T08:10:03Z</time>
      </trkpt>
      <trkpt lat="44.87675" lon="0.6936">
        <ele>100.1145</ele>
        <time>2011-10-16T08:10:08Z</time>
      </trkpt>
      <trkpt lat="44.87668" lon="0.69345">
        <ele>100.1145</ele>
        <time>2011-10-16T08:10:13Z</time>
      </trkpt>
      <trkpt lat="44.87663" lon="0.69324">
        <ele>98.672485</ele>
        <time>2011-10-16T08:10:19Z</time>
      </trkpt>
      <trkpt lat="44.87659" lon="0.69304">
        <ele>97.230468</ele>
        <time>2011-10-16T08:10:25Z</time>
      </trkpt>
      <trkpt lat="44.87657" lon="0.69285">
        <ele>94.346557</ele>
        <time>2011-10-16T08:10:30Z</time>
      </trkpt>
      <trkpt lat="44.87651" lon="0.69264">
        <ele>94.346557</ele>
        <time>2011-10-16T08:10:35Z</time>
      </trkpt>
      <trkpt lat="44.87643" lon="0.69247">
        <ele>92.42395</ele>
        <time>2011-10-16T08:10:40Z</time>
      </trkpt>
      <trkpt lat="44.87636" lon="0.69233">
        <ele>92.42395</ele>
        <time>2011-10-16T08:10:45Z</time>
      </trkpt>
      <trkpt lat="44.87634" lon="0.69233">
        <ele>96.269287</ele>
        <time>2011-10-16T08:10:49Z</time>
      </trkpt>
      <trkpt lat="44.87634" lon="0.69231">
        <ele>101.07568</ele>
        <time>2011-10-16T08:11:00Z</time>
      </trkpt>
      <trkpt lat="44.87636" lon="0.6923">
        <ele>100.1145</ele>
        <time>2011-10-16T08:11:06Z</time>
      </trkpt>
      <trkpt lat="44.87638" lon="0.69227">
        <ele>98.191894</ele>
        <time>2011-10-16T08:11:26Z</time>
      </trkpt>
      <trkpt lat="44.87639" lon="0.69234">
        <ele>92.904541</ele>
        <time>2011-10-16T08:11:47Z</time>
      </trkpt>
      <trkpt lat="44.87636" lon="0.69232">
        <ele>93.385131</ele>
        <time>2011-10-16T08:11:53Z</time>
      </trkpt>
      <trkpt lat="44.87634" lon="0.69228">
        <ele>92.904541</ele>
        <time>2011-10-16T08:11:59Z</time>
      </trkpt>
      <trkpt lat="44.87634" lon="0.69228">
        <ele>95.788452</ele>
        <time>2011-10-16T08:12:06Z</time>
      </trkpt>
      <trkpt lat="44.87635" lon="0.69226">
        <ele>97.230468</ele>
        <time>2011-10-16T08:12:12Z</time>
      </trkpt>
      <trkpt lat="44.87634" lon="0.69225">
        <ele>98.672485</ele>
        <time>2011-10-16T08:12:19Z</time>
      </trkpt>
      <trkpt lat="44.87634" lon="0.69229">
        <ele>97.230468</ele>
        <time>2011-10-16T08:12:32Z</time>
      </trkpt>
      <trkpt lat="44.87636" lon="0.69232">
        <ele>96.269287</ele>
        <time>2011-10-16T08:12:38Z</time>
      </trkpt>
      <trkpt lat="44.87637" lon="0.69233">
        <ele>95.307739</ele>
        <time>2011-10-16T08:12:54Z</time>
      </trkpt>
      <trkpt lat="44.87637" lon="0.6923">
        <ele>93.865844</ele>
        <time>2011-10-16T08:12:59Z</time>
      </trkpt>
      <trkpt lat="44.87636" lon="0.6923">
        <ele>94.346557</ele>
        <time>2011-10-16T08:13:05Z</time>
      </trkpt>
      <trkpt lat="44.87636" lon="0.69231">
        <ele>94.827148</ele>
        <time>2011-10-16T08:13:10Z</time>
      </trkpt>
      <trkpt lat="44.87636" lon="0.6923">
        <ele>95.788452</ele>
        <time>2011-10-16T08:13:17Z</time>
      </trkpt>
      <trkpt lat="44.87634" lon="0.69229">
        <ele>95.788452</ele>
        <time>2011-10-16T08:13:27Z</time>
      </trkpt>
      <trkpt lat="44.87633" lon="0.69233">
        <ele>96.749877</ele>
        <time>2011-10-16T08:13:30Z</time>
      </trkpt>
      <trkpt lat="44.87624" lon="0.69245">
        <ele>96.749877</ele>
        <time>2011-10-16T08:13:36Z</time>
      </trkpt>
      <trkpt lat="44.87617" lon="0.69257">
        <ele>98.191894</ele>
        <time>2011-10-16T08:13:41Z</time>
      </trkpt>
      <trkpt lat="44.87608" lon="0.69268">
        <ele>101.07568</ele>
        <time>2011-10-16T08:13:46Z</time>
      </trkpt>
      <trkpt lat="44.87597" lon="0.69278">
        <ele>104.92102</ele>
        <time>2011-10-16T08:13:50Z</time>
      </trkpt>
      <trkpt lat="44.87579" lon="0.69281">
        <ele>103.479</ele>
        <time>2011-10-16T08:13:57Z</time>
      </trkpt>
      <trkpt lat="44.87571" lon="0.69278">
        <ele>101.07568</ele>
        <time>2011-10-16T08:14:01Z</time>
      </trkpt>
      <trkpt lat="44.87556" lon="0.69275">
        <ele>102.0371</ele>
        <time>2011-10-16T08:14:07Z</time>
      </trkpt>
      <trkpt lat="44.87545" lon="0.69274">
        <ele>100.59509</ele>
        <time>2011-10-16T08:14:11Z</time>
      </trkpt>
      <trkpt lat="44.87535" lon="0.69273">
        <ele>100.59509</ele>
        <time>2011-10-16T08:14:16Z</time>
      </trkpt>
      <trkpt lat="44.87515" lon="0.69281">
        <ele>104.44042</ele>
        <time>2011-10-16T08:14:22Z</time>
      </trkpt>
      <trkpt lat="44.87502" lon="0.69291">
        <ele>107.80505</ele>
        <time>2011-10-16T08:14:27Z</time>
      </trkpt>
      <trkpt lat="44.87486" lon="0.69301">
        <ele>114.53417</ele>
        <time>2011-10-16T08:14:33Z</time>
      </trkpt>
      <trkpt lat="44.87475" lon="0.69311">
        <ele>117.8988</ele>
        <time>2011-10-16T08:14:39Z</time>
      </trkpt>
      <trkpt lat="44.87462" lon="0.6932">
        <ele>118.37939</ele>
        <time>2011-10-16T08:14:44Z</time>
      </trkpt>
      <trkpt lat="44.8746" lon="0.6932">
        <ele>117.41821</ele>
        <time>2011-10-16T08:14:45Z</time>
      </trkpt>
      <trkpt lat="44.87449" lon="0.69324">
        <ele>117.41821</ele>
        <time>2011-10-16T08:14:49Z</time>
      </trkpt>
      <trkpt lat="44.8743" lon="0.69326">
        <ele>117.41821</ele>
        <time>2011-10-16T08:14:56Z</time>
      </trkpt>
      <trkpt lat="44.87414" lon="0.69325">
        <ele>115.4956</ele>
        <time>2011-10-16T08:15:02Z</time>
      </trkpt>
      <trkpt lat="44.87409" lon="0.69326">
        <ele>116.45678</ele>
        <time>2011-10-16T08:15:04Z</time>
      </trkpt>
      <trkpt lat="44.87397" lon="0.69326">
        <ele>114.05358</ele>
        <time>2011-10-16T08:15:09Z</time>
      </trkpt>
      <trkpt lat="44.87384" lon="0.69329">
        <ele>111.65026</ele>
        <time>2011-10-16T08:15:14Z</time>
      </trkpt>
      <trkpt lat="44.87366" lon="0.6934">
        <ele>114.05358</ele>
        <time>2011-10-16T08:15:20Z</time>
      </trkpt>
      <trkpt lat="44.87351" lon="0.69347">
        <ele>113.09228</ele>
        <time>2011-10-16T08:15:25Z</time>
      </trkpt>
      <trkpt lat="44.87337" lon="0.69348">
        <ele>109.72766</ele>
        <time>2011-10-16T08:15:30Z</time>
      </trkpt>
      <trkpt lat="44.8732" lon="0.69345">
        <ele>109.72766</ele>
        <time>2011-10-16T08:15:36Z</time>
      </trkpt>
      <trkpt lat="44.87308" lon="0.69339">
        <ele>108.76623</ele>
        <time>2011-10-16T08:15:41Z</time>
      </trkpt>
      <trkpt lat="44.87297" lon="0.69326">
        <ele>107.80505</ele>
        <time>2011-10-16T08:15:46Z</time>
      </trkpt>
      <trkpt lat="44.87288" lon="0.69313">
        <ele>105.88244</ele>
        <time>2011-10-16T08:15:51Z</time>
      </trkpt>
      <trkpt lat="44.8728" lon="0.69299">
        <ele>104.44042</ele>
        <time>2011-10-16T08:15:56Z</time>
      </trkpt>
      <trkpt lat="44.87272" lon="0.69289">
        <ele>103.95971</ele>
        <time>2011-10-16T08:16:01Z</time>
      </trkpt>
      <trkpt lat="44.87261" lon="0.69283">
        <ele>106.84362</ele>
        <time>2011-10-16T08:16:06Z</time>
      </trkpt>
      <trkpt lat="44.87258" lon="0.69282">
        <ele>107.32434</ele>
        <time>2011-10-16T08:16:08Z</time>
      </trkpt>
      <trkpt lat="44.87242" lon="0.69285">
        <ele>119.34082</ele>
        <time>2011-10-16T08:16:14Z</time>
      </trkpt>
      <trkpt lat="44.87233" lon="0.69286">
        <ele>121.26354</ele>
        <time>2011-10-16T08:16:18Z</time>
      </trkpt>
      <trkpt lat="44.87231" lon="0.69286">
        <ele>122.22473</ele>
        <time>2011-10-16T08:16:19Z</time>
      </trkpt>
      <trkpt lat="44.87214" lon="0.69289">
        <ele>122.70544</ele>
        <time>2011-10-16T08:16:26Z</time>
      </trkpt>
      <trkpt lat="44.87202" lon="0.69296">
        <ele>123.18615</ele>
        <time>2011-10-16T08:16:31Z</time>
      </trkpt>
      <trkpt lat="44.87197" lon="0.69299">
        <ele>122.70544</ele>
        <time>2011-10-16T08:16:33Z</time>
      </trkpt>
      <trkpt lat="44.87184" lon="0.69306">
        <ele>122.70544</ele>
        <time>2011-10-16T08:16:39Z</time>
      </trkpt>
      <trkpt lat="44.87175" lon="0.69314">
        <ele>121.74414</ele>
        <time>2011-10-16T08:16:44Z</time>
      </trkpt>
      <trkpt lat="44.87173" lon="0.69315">
        <ele>122.70544</ele>
        <time>2011-10-16T08:16:47Z</time>
      </trkpt>
      <trkpt lat="44.87162" lon="0.69325">
        <ele>122.70544</ele>
        <time>2011-10-16T08:16:52Z</time>
      </trkpt>
      <trkpt lat="44.87155" lon="0.69339">
        <ele>122.22473</ele>
        <time>2011-10-16T08:16:56Z</time>
      </trkpt>
      <trkpt lat="44.87141" lon="0.69344">
        <ele>118.8601</ele>
        <time>2011-10-16T08:17:02Z</time>
      </trkpt>
      <trkpt lat="44.87139" lon="0.69343">
        <ele>118.8601</ele>
        <time>2011-10-16T08:17:03Z</time>
      </trkpt>
      <trkpt lat="44.87127" lon="0.69339">
        <ele>116.9375</ele>
        <time>2011-10-16T08:17:08Z</time>
      </trkpt>
      <trkpt lat="44.87115" lon="0.6934">
        <ele>117.8988</ele>
        <time>2011-10-16T08:17:12Z</time>
      </trkpt>
      <trkpt lat="44.87113" lon="0.69341">
        <ele>117.8988</ele>
        <time>2011-10-16T08:17:13Z</time>
      </trkpt>
      <trkpt lat="44.87102" lon="0.69346">
        <ele>116.9375</ele>
        <time>2011-10-16T08:17:18Z</time>
      </trkpt>
      <trkpt lat="44.87099" lon="0.69348">
        <ele>116.9375</ele>
        <time>2011-10-16T08:17:19Z</time>
      </trkpt>
      <trkpt lat="44.87088" lon="0.69355">
        <ele>118.37939</ele>
        <time>2011-10-16T08:17:24Z</time>
      </trkpt>
      <trkpt lat="44.87074" lon="0.69361">
        <ele>116.9375</ele>
        <time>2011-10-16T08:17:29Z</time>
      </trkpt>
      <trkpt lat="44.87057" lon="0.69365">
        <ele>115.01489</ele>
        <time>2011-10-16T08:17:34Z</time>
      </trkpt>
      <trkpt lat="44.87041" lon="0.69376">
        <ele>115.01489</ele>
        <time>2011-10-16T08:17:38Z</time>
      </trkpt>
      <trkpt lat="44.8703" lon="0.69387">
        <ele>114.53417</ele>
        <time>2011-10-16T08:17:41Z</time>
      </trkpt>
      <trkpt lat="44.87024" lon="0.69392">
        <ele>115.4956</ele>
        <time>2011-10-16T08:17:43Z</time>
      </trkpt>
      <trkpt lat="44.87009" lon="0.69408">
        <ele>115.97619</ele>
        <time>2011-10-16T08:17:48Z</time>
      </trkpt>
      <trkpt lat="44.87004" lon="0.69413">
        <ele>116.45678</ele>
        <time>2011-10-16T08:17:50Z</time>
      </trkpt>
      <trkpt lat="44.86994" lon="0.69427">
        <ele>117.41821</ele>
        <time>2011-10-16T08:17:54Z</time>
      </trkpt>
      <trkpt lat="44.8698" lon="0.6944">
        <ele>117.41821</ele>
        <time>2011-10-16T08:17:59Z</time>
      </trkpt>
      <trkpt lat="44.86969" lon="0.69448">
        <ele>115.4956</ele>
        <time>2011-10-16T08:18:04Z</time>
      </trkpt>
      <trkpt lat="44.86955" lon="0.69455">
        <ele>112.13098</ele>
        <time>2011-10-16T08:18:08Z</time>
      </trkpt>
      <trkpt lat="44.86947" lon="0.69457">
        <ele>108.76623</ele>
        <time>2011-10-16T08:18:11Z</time>
      </trkpt>
      <trkpt lat="44.86933" lon="0.69473">
        <ele>106.36303</ele>
        <time>2011-10-16T08:18:16Z</time>
      </trkpt>
      <trkpt lat="44.86926" lon="0.69491">
        <ele>102.99829</ele>
        <time>2011-10-16T08:18:22Z</time>
      </trkpt>
      <trkpt lat="44.86925" lon="0.69511">
        <ele>100.1145</ele>
        <time>2011-10-16T08:18:27Z</time>
      </trkpt>
      <trkpt lat="44.86925" lon="0.69527">
        <ele>99.633789</ele>
        <time>2011-10-16T08:18:32Z</time>
      </trkpt>
      <trkpt lat="44.86923" lon="0.69531">
        <ele>101.07568</ele>
        <time>2011-10-16T08:18:39Z</time>
      </trkpt>
      <trkpt lat="44.86922" lon="0.69537">
        <ele>102.5177</ele>
        <time>2011-10-16T08:18:43Z</time>
      </trkpt>
      <trkpt lat="44.86921" lon="0.69556">
        <ele>101.55639</ele>
        <time>2011-10-16T08:18:47Z</time>
      </trkpt>
      <trkpt lat="44.8692" lon="0.69572">
        <ele>100.59509</ele>
        <time>2011-10-16T08:18:51Z</time>
      </trkpt>
      <trkpt lat="44.8692" lon="0.69584">
        <ele>100.59509</ele>
        <time>2011-10-16T08:18:54Z</time>
      </trkpt>
      <trkpt lat="44.86923" lon="0.696">
        <ele>101.07568</ele>
        <time>2011-10-16T08:18:58Z</time>
      </trkpt>
      <trkpt lat="44.86925" lon="0.69619">
        <ele>101.07568</ele>
        <time>2011-10-16T08:19:03Z</time>
      </trkpt>
      <trkpt lat="44.86926" lon="0.69639">
        <ele>100.59509</ele>
        <time>2011-10-16T08:19:08Z</time>
      </trkpt>
      <trkpt lat="44.8693" lon="0.69658">
        <ele>100.1145</ele>
        <time>2011-10-16T08:19:13Z</time>
      </trkpt>
      <trkpt lat="44.8693" lon="0.69675">
        <ele>101.07568</ele>
        <time>2011-10-16T08:19:17Z</time>
      </trkpt>
      <trkpt lat="44.86927" lon="0.6969">
        <ele>102.0371</ele>
        <time>2011-10-16T08:19:21Z</time>
      </trkpt>
      <trkpt lat="44.86923" lon="0.69705">
        <ele>103.95971</ele>
        <time>2011-10-16T08:19:26Z</time>
      </trkpt>
      <trkpt lat="44.8692" lon="0.69726">
        <ele>106.84362</ele>
        <time>2011-10-16T08:19:31Z</time>
      </trkpt>
      <trkpt lat="44.8692" lon="0.69748">
        <ele>109.72766</ele>
        <time>2011-10-16T08:19:35Z</time>
      </trkpt>
      <trkpt lat="44.86918" lon="0.69759">
        <ele>108.76623</ele>
        <time>2011-10-16T08:19:39Z</time>
      </trkpt>
      <trkpt lat="44.86916" lon="0.69767">
        <ele>109.72766</ele>
        <time>2011-10-16T08:19:43Z</time>
      </trkpt>
      <trkpt lat="44.86914" lon="0.69781">
        <ele>112.61157</ele>
        <time>2011-10-16T08:19:47Z</time>
      </trkpt>
      <trkpt lat="44.86915" lon="0.69803">
        <ele>111.65026</ele>
        <time>2011-10-16T08:19:53Z</time>
      </trkpt>
      <trkpt lat="44.86912" lon="0.69822">
        <ele>110.68884</ele>
        <time>2011-10-16T08:19:58Z</time>
      </trkpt>
      <trkpt lat="44.86911" lon="0.69826">
        <ele>110.68884</ele>
        <time>2011-10-16T08:19:59Z</time>
      </trkpt>
      <trkpt lat="44.86914" lon="0.69849">
        <ele>108.76623</ele>
        <time>2011-10-16T08:20:06Z</time>
      </trkpt>
      <trkpt lat="44.86916" lon="0.69863">
        <ele>108.76623</ele>
        <time>2011-10-16T08:20:10Z</time>
      </trkpt>
      <trkpt lat="44.86917" lon="0.6987">
        <ele>109.24694</ele>
        <time>2011-10-16T08:20:12Z</time>
      </trkpt>
      <trkpt lat="44.8692" lon="0.69886">
        <ele>111.16955</ele>
        <time>2011-10-16T08:20:17Z</time>
      </trkpt>
      <trkpt lat="44.8692" lon="0.69903">
        <ele>112.13098</ele>
        <time>2011-10-16T08:20:22Z</time>
      </trkpt>
      <trkpt lat="44.8692" lon="0.69908">
        <ele>112.61157</ele>
        <time>2011-10-16T08:20:23Z</time>
      </trkpt>
      <trkpt lat="44.86922" lon="0.69926">
        <ele>113.57299</ele>
        <time>2011-10-16T08:20:28Z</time>
      </trkpt>
      <trkpt lat="44.86924" lon="0.69936">
        <ele>114.53417</ele>
        <time>2011-10-16T08:20:31Z</time>
      </trkpt>
      <trkpt lat="44.8692" lon="0.69941">
        <ele>115.01489</ele>
        <time>2011-10-16T08:20:37Z</time>
      </trkpt>
      <trkpt lat="44.86912" lon="0.69945">
        <ele>115.97619</ele>
        <time>2011-10-16T08:20:45Z</time>
      </trkpt>
      <trkpt lat="44.86903" lon="0.69948">
        <ele>115.4956</ele>
        <time>2011-10-16T08:20:50Z</time>
      </trkpt>
      <trkpt lat="44.8689" lon="0.69953">
        <ele>115.97619</ele>
        <time>2011-10-16T08:20:55Z</time>
      </trkpt>
      <trkpt lat="44.86875" lon="0.69955">
        <ele>113.57299</ele>
        <time>2011-10-16T08:21:00Z</time>
      </trkpt>
      <trkpt lat="44.86872" lon="0.69955">
        <ele>113.57299</ele>
        <time>2011-10-16T08:21:01Z</time>
      </trkpt>
      <trkpt lat="44.86856" lon="0.69956">
        <ele>110.68884</ele>
        <time>2011-10-16T08:21:07Z</time>
      </trkpt>
      <trkpt lat="44.86852" lon="0.69959">
        <ele>109.72766</ele>
        <time>2011-10-16T08:21:09Z</time>
      </trkpt>
      <trkpt lat="44.86837" lon="0.6997">
        <ele>110.20825</ele>
        <time>2011-10-16T08:21:15Z</time>
      </trkpt>
      <trkpt lat="44.86834" lon="0.69969">
        <ele>109.72766</ele>
        <time>2011-10-16T08:21:16Z</time>
      </trkpt>
      <trkpt lat="44.8682" lon="0.69956">
        <ele>106.36303</ele>
        <time>2011-10-16T08:21:22Z</time>
      </trkpt>
      <trkpt lat="44.86807" lon="0.69953">
        <ele>103.479</ele>
        <time>2011-10-16T08:21:26Z</time>
      </trkpt>
      <trkpt lat="44.86793" lon="0.69963">
        <ele>103.479</ele>
        <time>2011-10-16T08:21:30Z</time>
      </trkpt>
      <trkpt lat="44.86781" lon="0.69966">
        <ele>102.0371</ele>
        <time>2011-10-16T08:21:34Z</time>
      </trkpt>
      <trkpt lat="44.86769" lon="0.69966">
        <ele>99.633789</ele>
        <time>2011-10-16T08:21:39Z</time>
      </trkpt>
      <trkpt lat="44.86751" lon="0.69968">
        <ele>100.1145</ele>
        <time>2011-10-16T08:21:46Z</time>
      </trkpt>
      <trkpt lat="44.86741" lon="0.69974">
        <ele>102.0371</ele>
        <time>2011-10-16T08:21:51Z</time>
      </trkpt>
      <trkpt lat="44.8673" lon="0.69979">
        <ele>107.32434</ele>
        <time>2011-10-16T08:21:55Z</time>
      </trkpt>
      <trkpt lat="44.86719" lon="0.69992">
        <ele>110.68884</ele>
        <time>2011-10-16T08:21:59Z</time>
      </trkpt>
      <trkpt lat="44.86716" lon="0.69996">
        <ele>111.16955</ele>
        <time>2011-10-16T08:22:00Z</time>
      </trkpt>
      <trkpt lat="44.86713" lon="0.70007">
        <ele>113.57299</ele>
        <time>2011-10-16T08:22:05Z</time>
      </trkpt>
      <trkpt lat="44.86709" lon="0.70013">
        <ele>116.45678</ele>
        <time>2011-10-16T08:22:07Z</time>
      </trkpt>
      <trkpt lat="44.8669" lon="0.70025">
        <ele>126.06994</ele>
        <time>2011-10-16T08:22:13Z</time>
      </trkpt>
      <trkpt lat="44.86677" lon="0.70022">
        <ele>126.06994</ele>
        <time>2011-10-16T08:22:18Z</time>
      </trkpt>
      <trkpt lat="44.8667" lon="0.70023">
        <ele>124.14733</ele>
        <time>2011-10-16T08:22:22Z</time>
      </trkpt>
      <trkpt lat="44.86661" lon="0.70028">
        <ele>120.78283</ele>
        <time>2011-10-16T08:22:27Z</time>
      </trkpt>
      <trkpt lat="44.86644" lon="0.70045">
        <ele>121.74414</ele>
        <time>2011-10-16T08:22:34Z</time>
      </trkpt>
      <trkpt lat="44.86633" lon="0.70047">
        <ele>122.22473</ele>
        <time>2011-10-16T08:22:38Z</time>
      </trkpt>
      <trkpt lat="44.8662" lon="0.70049">
        <ele>118.8601</ele>
        <time>2011-10-16T08:22:43Z</time>
      </trkpt>
      <trkpt lat="44.86602" lon="0.70052">
        <ele>119.82141</ele>
        <time>2011-10-16T08:22:49Z</time>
      </trkpt>
      <trkpt lat="44.86597" lon="0.70054">
        <ele>122.22473</ele>
        <time>2011-10-16T08:22:51Z</time>
      </trkpt>
      <trkpt lat="44.86592" lon="0.70057">
        <ele>122.22473</ele>
        <time>2011-10-16T08:22:54Z</time>
      </trkpt>
      <trkpt lat="44.86586" lon="0.70073">
        <ele>121.74414</ele>
        <time>2011-10-16T08:22:59Z</time>
      </trkpt>
      <trkpt lat="44.86584" lon="0.70083">
        <ele>120.78283</ele>
        <time>2011-10-16T08:23:02Z</time>
      </trkpt>
      <trkpt lat="44.86577" lon="0.70094">
        <ele>120.30212</ele>
        <time>2011-10-16T08:23:06Z</time>
      </trkpt>
      <trkpt lat="44.8657" lon="0.70101">
        <ele>118.8601</ele>
        <time>2011-10-16T08:23:09Z</time>
      </trkpt>
      <trkpt lat="44.8656" lon="0.70116">
        <ele>118.8601</ele>
        <time>2011-10-16T08:23:15Z</time>
      </trkpt>
      <trkpt lat="44.86555" lon="0.7012">
        <ele>118.37939</ele>
        <time>2011-10-16T08:23:20Z</time>
      </trkpt>
      <trkpt lat="44.86547" lon="0.70117">
        <ele>115.97619</ele>
        <time>2011-10-16T08:23:25Z</time>
      </trkpt>
      <trkpt lat="44.86542" lon="0.70114">
        <ele>114.53417</ele>
        <time>2011-10-16T08:23:27Z</time>
      </trkpt>
      <trkpt lat="44.86525" lon="0.70103">
        <ele>114.05358</ele>
        <time>2011-10-16T08:23:33Z</time>
      </trkpt>
      <trkpt lat="44.86512" lon="0.70098">
        <ele>115.4956</ele>
        <time>2011-10-16T08:23:38Z</time>
      </trkpt>
      <trkpt lat="44.86498" lon="0.7009">
        <ele>115.97619</ele>
        <time>2011-10-16T08:23:43Z</time>
      </trkpt>
      <trkpt lat="44.86483" lon="0.70082">
        <ele>115.97619</ele>
        <time>2011-10-16T08:23:48Z</time>
      </trkpt>
      <trkpt lat="44.86466" lon="0.70075">
        <ele>118.8601</ele>
        <time>2011-10-16T08:23:54Z</time>
      </trkpt>
      <trkpt lat="44.86454" lon="0.70072">
        <ele>121.26354</ele>
        <time>2011-10-16T08:23:58Z</time>
      </trkpt>
      <trkpt lat="44.86448" lon="0.70069">
        <ele>121.26354</ele>
        <time>2011-10-16T08:24:04Z</time>
      </trkpt>
      <trkpt lat="44.86447" lon="0.70068">
        <ele>121.26354</ele>
        <time>2011-10-16T08:24:10Z</time>
      </trkpt>
      <trkpt lat="44.8645" lon="0.70073">
        <ele>122.70544</ele>
        <time>2011-10-16T08:24:17Z</time>
      </trkpt>
      <trkpt lat="44.86452" lon="0.70075">
        <ele>122.70544</ele>
        <time>2011-10-16T08:24:23Z</time>
      </trkpt>
      <trkpt lat="44.86449" lon="0.70073">
        <ele>123.66674</ele>
        <time>2011-10-16T08:24:26Z</time>
      </trkpt>
      <trkpt lat="44.86432" lon="0.70064">
        <ele>125.10876</ele>
        <time>2011-10-16T08:24:33Z</time>
      </trkpt>
      <trkpt lat="44.8642" lon="0.70064">
        <ele>125.10876</ele>
        <time>2011-10-16T08:24:38Z</time>
      </trkpt>
      <trkpt lat="44.86407" lon="0.70065">
        <ele>125.58935</ele>
        <time>2011-10-16T08:24:43Z</time>
      </trkpt>
      <trkpt lat="44.86391" lon="0.70066">
        <ele>126.55065</ele>
        <time>2011-10-16T08:24:49Z</time>
      </trkpt>
      <trkpt lat="44.8638" lon="0.70066">
        <ele>126.55065</ele>
        <time>2011-10-16T08:24:53Z</time>
      </trkpt>
      <trkpt lat="44.86369" lon="0.70067">
        <ele>125.58935</ele>
        <time>2011-10-16T08:24:57Z</time>
      </trkpt>
      <trkpt lat="44.86351" lon="0.70066">
        <ele>127.03137</ele>
        <time>2011-10-16T08:25:04Z</time>
      </trkpt>
      <trkpt lat="44.86338" lon="0.70066">
        <ele>126.55065</ele>
        <time>2011-10-16T08:25:09Z</time>
      </trkpt>
      <trkpt lat="44.86328" lon="0.70068">
        <ele>125.10876</ele>
        <time>2011-10-16T08:25:14Z</time>
      </trkpt>
      <trkpt lat="44.86327" lon="0.70069">
        <ele>125.10876</ele>
        <time>2011-10-16T08:25:15Z</time>
      </trkpt>
      <trkpt lat="44.86318" lon="0.70071">
        <ele>127.51196</ele>
        <time>2011-10-16T08:25:23Z</time>
      </trkpt>
      <trkpt lat="44.86314" lon="0.7007">
        <ele>128.47338</ele>
        <time>2011-10-16T08:25:30Z</time>
      </trkpt>
      <trkpt lat="44.86311" lon="0.70069">
        <ele>127.99255</ele>
        <time>2011-10-16T08:25:34Z</time>
      </trkpt>
      <trkpt lat="44.86304" lon="0.70066">
        <ele>127.03137</ele>
        <time>2011-10-16T08:25:37Z</time>
      </trkpt>
      <trkpt lat="44.86288" lon="0.70076">
        <ele>124.62805</ele>
        <time>2011-10-16T08:25:42Z</time>
      </trkpt>
      <trkpt lat="44.86274" lon="0.70085">
        <ele>125.10876</ele>
        <time>2011-10-16T08:25:46Z</time>
      </trkpt>
      <trkpt lat="44.8626" lon="0.70094">
        <ele>126.55065</ele>
        <time>2011-10-16T08:25:51Z</time>
      </trkpt>
      <trkpt lat="44.86245" lon="0.70103">
        <ele>125.58935</ele>
        <time>2011-10-16T08:25:56Z</time>
      </trkpt>
      <trkpt lat="44.8623" lon="0.70109">
        <ele>126.06994</ele>
        <time>2011-10-16T08:26:01Z</time>
      </trkpt>
      <trkpt lat="44.86217" lon="0.70118">
        <ele>125.10876</ele>
        <time>2011-10-16T08:26:05Z</time>
      </trkpt>
      <trkpt lat="44.86206" lon="0.70127">
        <ele>125.10876</ele>
        <time>2011-10-16T08:26:09Z</time>
      </trkpt>
      <trkpt lat="44.86192" lon="0.7013">
        <ele>123.18615</ele>
        <time>2011-10-16T08:26:13Z</time>
      </trkpt>
      <trkpt lat="44.86178" lon="0.70129">
        <ele>120.30212</ele>
        <time>2011-10-16T08:26:17Z</time>
      </trkpt>
      <trkpt lat="44.86165" lon="0.70128">
        <ele>118.37939</ele>
        <time>2011-10-16T08:26:21Z</time>
      </trkpt>
      <trkpt lat="44.86149" lon="0.70134">
        <ele>115.97619</ele>
        <time>2011-10-16T08:26:26Z</time>
      </trkpt>
      <trkpt lat="44.86135" lon="0.70139">
        <ele>109.24694</ele>
        <time>2011-10-16T08:26:31Z</time>
      </trkpt>
      <trkpt lat="44.86123" lon="0.7015">
        <ele>109.24694</ele>
        <time>2011-10-16T08:26:35Z</time>
      </trkpt>
      <trkpt lat="44.86107" lon="0.70162">
        <ele>105.88244</ele>
        <time>2011-10-16T08:26:40Z</time>
      </trkpt>
      <trkpt lat="44.86093" lon="0.70167">
        <ele>102.0371</ele>
        <time>2011-10-16T08:26:44Z</time>
      </trkpt>
      <trkpt lat="44.86074" lon="0.70176">
        <ele>99.153076</ele>
        <time>2011-10-16T08:26:49Z</time>
      </trkpt>
      <trkpt lat="44.8606" lon="0.70186">
        <ele>99.153076</ele>
        <time>2011-10-16T08:26:53Z</time>
      </trkpt>
      <trkpt lat="44.86047" lon="0.70203">
        <ele>98.672485</ele>
        <time>2011-10-16T08:26:58Z</time>
      </trkpt>
      <trkpt lat="44.86041" lon="0.7021">
        <ele>99.633789</ele>
        <time>2011-10-16T08:27:00Z</time>
      </trkpt>
      <trkpt lat="44.86025" lon="0.70213">
        <ele>101.55639</ele>
        <time>2011-10-16T08:27:05Z</time>
      </trkpt>
      <trkpt lat="44.86022" lon="0.70214">
        <ele>100.59509</ele>
        <time>2011-10-16T08:27:07Z</time>
      </trkpt>
      <trkpt lat="44.86013" lon="0.70222">
        <ele>102.99829</ele>
        <time>2011-10-16T08:27:12Z</time>
      </trkpt>
      <trkpt lat="44.86004" lon="0.70227">
        <ele>103.479</ele>
        <time>2011-10-16T08:27:17Z</time>
      </trkpt>
      <trkpt lat="44.85985" lon="0.70228">
        <ele>105.40173</ele>
        <time>2011-10-16T08:27:23Z</time>
      </trkpt>
      <trkpt lat="44.85969" lon="0.70226">
        <ele>105.88244</ele>
        <time>2011-10-16T08:27:28Z</time>
      </trkpt>
      <trkpt lat="44.8596" lon="0.70221">
        <ele>101.55639</ele>
        <time>2011-10-16T08:27:32Z</time>
      </trkpt>
      <trkpt lat="44.85957" lon="0.7022">
        <ele>101.07568</ele>
        <time>2011-10-16T08:27:33Z</time>
      </trkpt>
      <trkpt lat="44.85946" lon="0.7021">
        <ele>93.865844</ele>
        <time>2011-10-16T08:27:39Z</time>
      </trkpt>
      <trkpt lat="44.85935" lon="0.70205">
        <ele>91.943237</ele>
        <time>2011-10-16T08:27:44Z</time>
      </trkpt>
      <trkpt lat="44.85933" lon="0.70204">
        <ele>91.943237</ele>
        <time>2011-10-16T08:27:45Z</time>
      </trkpt>
      <trkpt lat="44.85918" lon="0.70197">
        <ele>91.943237</ele>
        <time>2011-10-16T08:27:52Z</time>
      </trkpt>
      <trkpt lat="44.85909" lon="0.70201">
        <ele>91.943237</ele>
        <time>2011-10-16T08:27:56Z</time>
      </trkpt>
      <trkpt lat="44.85902" lon="0.70204">
        <ele>90.981933</ele>
        <time>2011-10-16T08:28:00Z</time>
      </trkpt>
      <trkpt lat="44.85897" lon="0.7021">
        <ele>91.462524</ele>
        <time>2011-10-16T08:28:04Z</time>
      </trkpt>
      <trkpt lat="44.85889" lon="0.70214">
        <ele>89.539917</ele>
        <time>2011-10-16T08:28:09Z</time>
      </trkpt>
      <trkpt lat="44.85876" lon="0.70226">
        <ele>93.385131</ele>
        <time>2011-10-16T08:28:14Z</time>
      </trkpt>
      <trkpt lat="44.85862" lon="0.70235">
        <ele>95.307739</ele>
        <time>2011-10-16T08:28:19Z</time>
      </trkpt>
      <trkpt lat="44.85861" lon="0.70236">
        <ele>95.307739</ele>
        <time>2011-10-16T08:28:20Z</time>
      </trkpt>
      <trkpt lat="44.85844" lon="0.70249">
        <ele>95.307739</ele>
        <time>2011-10-16T08:28:26Z</time>
      </trkpt>
      <trkpt lat="44.85836" lon="0.70258">
        <ele>94.346557</ele>
        <time>2011-10-16T08:28:30Z</time>
      </trkpt>
      <trkpt lat="44.8583" lon="0.70265">
        <ele>91.943237</ele>
        <time>2011-10-16T08:28:33Z</time>
      </trkpt>
      <trkpt lat="44.85815" lon="0.70274">
        <ele>92.42395</ele>
        <time>2011-10-16T08:28:38Z</time>
      </trkpt>
      <trkpt lat="44.85806" lon="0.70286">
        <ele>90.501342</ele>
        <time>2011-10-16T08:28:43Z</time>
      </trkpt>
      <trkpt lat="44.85802" lon="0.70294">
        <ele>89.539917</ele>
        <time>2011-10-16T08:28:46Z</time>
      </trkpt>
      <trkpt lat="44.85798" lon="0.703">
        <ele>90.501342</ele>
        <time>2011-10-16T08:28:48Z</time>
      </trkpt>
      <trkpt lat="44.85794" lon="0.70313">
        <ele>89.539917</ele>
        <time>2011-10-16T08:28:52Z</time>
      </trkpt>
      <trkpt lat="44.8579" lon="0.70327">
        <ele>88.578735</ele>
        <time>2011-10-16T08:28:57Z</time>
      </trkpt>
      <trkpt lat="44.85785" lon="0.70338">
        <ele>90.020629</ele>
        <time>2011-10-16T08:29:02Z</time>
      </trkpt>
      <trkpt lat="44.85778" lon="0.70344">
        <ele>90.501342</ele>
        <time>2011-10-16T08:29:05Z</time>
      </trkpt>
      <trkpt lat="44.85775" lon="0.70348">
        <ele>91.462524</ele>
        <time>2011-10-16T08:29:10Z</time>
      </trkpt>
      <trkpt lat="44.85774" lon="0.70349">
        <ele>90.501342</ele>
        <time>2011-10-16T08:29:11Z</time>
      </trkpt>
      <trkpt lat="44.85764" lon="0.70362">
        <ele>91.943237</ele>
        <time>2011-10-16T08:29:17Z</time>
      </trkpt>
      <trkpt lat="44.85752" lon="0.70374">
        <ele>90.981933</ele>
        <time>2011-10-16T08:29:23Z</time>
      </trkpt>
      <trkpt lat="44.85745" lon="0.70384">
        <ele>91.462524</ele>
        <time>2011-10-16T08:29:27Z</time>
      </trkpt>
      <trkpt lat="44.85738" lon="0.70395">
        <ele>91.943237</ele>
        <time>2011-10-16T08:29:32Z</time>
      </trkpt>
      <trkpt lat="44.85731" lon="0.70404">
        <ele>91.943237</ele>
        <time>2011-10-16T08:29:36Z</time>
      </trkpt>
      <trkpt lat="44.85724" lon="0.70413">
        <ele>92.904541</ele>
        <time>2011-10-16T08:29:40Z</time>
      </trkpt>
      <trkpt lat="44.85713" lon="0.70428">
        <ele>93.385131</ele>
        <time>2011-10-16T08:29:46Z</time>
      </trkpt>
      <trkpt lat="44.85701" lon="0.7044">
        <ele>97.230468</ele>
        <time>2011-10-16T08:29:51Z</time>
      </trkpt>
      <trkpt lat="44.85692" lon="0.70447">
        <ele>99.153076</ele>
        <time>2011-10-16T08:29:55Z</time>
      </trkpt>
      <trkpt lat="44.85681" lon="0.70457">
        <ele>100.59509</ele>
        <time>2011-10-16T08:29:59Z</time>
      </trkpt>
      <trkpt lat="44.85673" lon="0.70462">
        <ele>98.672485</ele>
        <time>2011-10-16T08:30:03Z</time>
      </trkpt>
      <trkpt lat="44.85659" lon="0.70478">
        <ele>103.479</ele>
        <time>2011-10-16T08:30:09Z</time>
      </trkpt>
      <trkpt lat="44.85648" lon="0.70489">
        <ele>105.88244</ele>
        <time>2011-10-16T08:30:13Z</time>
      </trkpt>
      <trkpt lat="44.85641" lon="0.70493">
        <ele>101.55639</ele>
        <time>2011-10-16T08:30:17Z</time>
      </trkpt>
      <trkpt lat="44.85634" lon="0.70494">
        <ele>97.711181</ele>
        <time>2011-10-16T08:30:22Z</time>
      </trkpt>
      <trkpt lat="44.85623" lon="0.70498">
        <ele>96.269287</ele>
        <time>2011-10-16T08:30:27Z</time>
      </trkpt>
      <trkpt lat="44.85606" lon="0.70507">
        <ele>94.346557</ele>
        <time>2011-10-16T08:30:34Z</time>
      </trkpt>
      <trkpt lat="44.85596" lon="0.70513">
        <ele>94.346557</ele>
        <time>2011-10-16T08:30:39Z</time>
      </trkpt>
      <trkpt lat="44.85583" lon="0.7052">
        <ele>92.904541</ele>
        <time>2011-10-16T08:30:44Z</time>
      </trkpt>
      <trkpt lat="44.85577" lon="0.70528">
        <ele>92.42395</ele>
        <time>2011-10-16T08:30:48Z</time>
      </trkpt>
      <trkpt lat="44.85567" lon="0.70543">
        <ele>91.943237</ele>
        <time>2011-10-16T08:30:53Z</time>
      </trkpt>
      <trkpt lat="44.85553" lon="0.70557">
        <ele>90.981933</ele>
        <time>2011-10-16T08:30:58Z</time>
      </trkpt>
      <trkpt lat="44.85539" lon="0.70573">
        <ele>90.020629</ele>
        <time>2011-10-16T08:31:03Z</time>
      </trkpt>
      <trkpt lat="44.85535" lon="0.70578">
        <ele>90.501342</ele>
        <time>2011-10-16T08:31:05Z</time>
      </trkpt>
      <trkpt lat="44.8552" lon="0.70576">
        <ele>89.059326</ele>
        <time>2011-10-16T08:31:10Z</time>
      </trkpt>
      <trkpt lat="44.85508" lon="0.70572">
        <ele>88.098022</ele>
        <time>2011-10-16T08:31:14Z</time>
      </trkpt>
      <trkpt lat="44.85491" lon="0.70564">
        <ele>87.136596</ele>
        <time>2011-10-16T08:31:20Z</time>
      </trkpt>
      <trkpt lat="44.85474" lon="0.70555">
        <ele>84.252685</ele>
        <time>2011-10-16T08:31:26Z</time>
      </trkpt>
      <trkpt lat="44.85462" lon="0.70551">
        <ele>82.330078</ele>
        <time>2011-10-16T08:31:30Z</time>
      </trkpt>
      <trkpt lat="44.85447" lon="0.70541">
        <ele>81.849365</ele>
        <time>2011-10-16T08:31:36Z</time>
      </trkpt>
      <trkpt lat="44.85434" lon="0.70527">
        <ele>76.08142</ele>
        <time>2011-10-16T08:31:41Z</time>
      </trkpt>
      <trkpt lat="44.85419" lon="0.7052">
        <ele>77.042846</ele>
        <time>2011-10-16T08:31:46Z</time>
      </trkpt>
      <trkpt lat="44.85406" lon="0.70521">
        <ele>76.562133</ele>
        <time>2011-10-16T08:31:50Z</time>
      </trkpt>
      <trkpt lat="44.8539" lon="0.70522">
        <ele>78.004028</ele>
        <time>2011-10-16T08:31:55Z</time>
      </trkpt>
      <trkpt lat="44.85374" lon="0.70521">
        <ele>79.926635</ele>
        <time>2011-10-16T08:32:00Z</time>
      </trkpt>
      <trkpt lat="44.85359" lon="0.70518">
        <ele>80.888183</ele>
        <time>2011-10-16T08:32:05Z</time>
      </trkpt>
      <trkpt lat="44.85342" lon="0.70514">
        <ele>82.810791</ele>
        <time>2011-10-16T08:32:10Z</time>
      </trkpt>
      <trkpt lat="44.85327" lon="0.7051">
        <ele>83.771972</ele>
        <time>2011-10-16T08:32:15Z</time>
      </trkpt>
      <trkpt lat="44.85315" lon="0.70507">
        <ele>84.733398</ele>
        <time>2011-10-16T08:32:19Z</time>
      </trkpt>
      <trkpt lat="44.85304" lon="0.70505">
        <ele>85.213989</ele>
        <time>2011-10-16T08:32:23Z</time>
      </trkpt>
      <trkpt lat="44.85288" lon="0.70499">
        <ele>84.252685</ele>
        <time>2011-10-16T08:32:28Z</time>
      </trkpt>
      <trkpt lat="44.85275" lon="0.70488">
        <ele>81.849365</ele>
        <time>2011-10-16T08:32:33Z</time>
      </trkpt>
      <trkpt lat="44.85263" lon="0.70474">
        <ele>77.523437</ele>
        <time>2011-10-16T08:32:38Z</time>
      </trkpt>
      <trkpt lat="44.85251" lon="0.70459">
        <ele>73.197631</ele>
        <time>2011-10-16T08:32:43Z</time>
      </trkpt>
      <trkpt lat="44.85239" lon="0.70441">
        <ele>69.352294</ele>
        <time>2011-10-16T08:32:48Z</time>
      </trkpt>
      <trkpt lat="44.85225" lon="0.70421">
        <ele>67.429687</ele>
        <time>2011-10-16T08:32:54Z</time>
      </trkpt>
      <trkpt lat="44.85213" lon="0.70407">
        <ele>67.910278</ele>
        <time>2011-10-16T08:32:59Z</time>
      </trkpt>
      <trkpt lat="44.85201" lon="0.70397">
        <ele>68.390869</ele>
        <time>2011-10-16T08:33:03Z</time>
      </trkpt>
      <trkpt lat="44.85186" lon="0.70388">
        <ele>71.274902</ele>
        <time>2011-10-16T08:33:08Z</time>
      </trkpt>
      <trkpt lat="44.85168" lon="0.70379">
        <ele>69.832885</ele>
        <time>2011-10-16T08:33:14Z</time>
      </trkpt>
      <trkpt lat="44.85154" lon="0.70373">
        <ele>68.390869</ele>
        <time>2011-10-16T08:33:19Z</time>
      </trkpt>
      <trkpt lat="44.85139" lon="0.70366">
        <ele>67.429687</ele>
        <time>2011-10-16T08:33:24Z</time>
      </trkpt>
      <trkpt lat="44.85129" lon="0.70362">
        <ele>66.948974</ele>
        <time>2011-10-16T08:33:29Z</time>
      </trkpt>
      <trkpt lat="44.85129" lon="0.70361">
        <ele>67.429687</ele>
        <time>2011-10-16T08:33:30Z</time>
      </trkpt>
      <trkpt lat="44.85127" lon="0.70359">
        <ele>68.390869</ele>
        <time>2011-10-16T08:33:41Z</time>
      </trkpt>
      <trkpt lat="44.85128" lon="0.70356">
        <ele>71.274902</ele>
        <time>2011-10-16T08:33:47Z</time>
      </trkpt>
      <trkpt lat="44.85127" lon="0.70355">
        <ele>75.120239</ele>
        <time>2011-10-16T08:33:53Z</time>
      </trkpt>
      <trkpt lat="44.85127" lon="0.70355">
        <ele>73.197631</ele>
        <time>2011-10-16T08:33:59Z</time>
      </trkpt>
      <trkpt lat="44.85118" lon="0.70343">
        <ele>71.274902</ele>
        <time>2011-10-16T08:34:04Z</time>
      </trkpt>
      <trkpt lat="44.85114" lon="0.70331">
        <ele>70.313476</ele>
        <time>2011-10-16T08:34:08Z</time>
      </trkpt>
      <trkpt lat="44.85107" lon="0.70311">
        <ele>67.910278</ele>
        <time>2011-10-16T08:34:15Z</time>
      </trkpt>
      <trkpt lat="44.85105" lon="0.70299">
        <ele>65.50708</ele>
        <time>2011-10-16T08:34:19Z</time>
      </trkpt>
      <trkpt lat="44.85115" lon="0.70287">
        <ele>65.50708</ele>
        <time>2011-10-16T08:34:24Z</time>
      </trkpt>
      <trkpt lat="44.85131" lon="0.70274">
        <ele>65.98767</ele>
        <time>2011-10-16T08:34:31Z</time>
      </trkpt>
      <trkpt lat="44.85136" lon="0.70271">
        <ele>65.98767</ele>
        <time>2011-10-16T08:34:33Z</time>
      </trkpt>
      <trkpt lat="44.85143" lon="0.70254">
        <ele>62.622924</ele>
        <time>2011-10-16T08:34:39Z</time>
      </trkpt>
      <trkpt lat="44.8515" lon="0.70243">
        <ele>64.545654</ele>
        <time>2011-10-16T08:34:43Z</time>
      </trkpt>
      <trkpt lat="44.85151" lon="0.70239">
        <ele>65.026367</ele>
        <time>2011-10-16T08:34:44Z</time>
      </trkpt>
      <trkpt lat="44.85155" lon="0.70226">
        <ele>67.429687</ele>
        <time>2011-10-16T08:34:48Z</time>
      </trkpt>
      <trkpt lat="44.85158" lon="0.7021">
        <ele>66.948974</ele>
        <time>2011-10-16T08:34:53Z</time>
      </trkpt>
      <trkpt lat="44.85158" lon="0.70202">
        <ele>65.98767</ele>
        <time>2011-10-16T08:34:55Z</time>
      </trkpt>
      <trkpt lat="44.85164" lon="0.70184">
        <ele>65.50708</ele>
        <time>2011-10-16T08:35:01Z</time>
      </trkpt>
      <trkpt lat="44.85166" lon="0.70176">
        <ele>66.948974</ele>
        <time>2011-10-16T08:35:03Z</time>
      </trkpt>
      <trkpt lat="44.85171" lon="0.70156">
        <ele>68.390869</ele>
        <time>2011-10-16T08:35:08Z</time>
      </trkpt>
      <trkpt lat="44.85173" lon="0.70136">
        <ele>71.274902</ele>
        <time>2011-10-16T08:35:13Z</time>
      </trkpt>
      <trkpt lat="44.85175" lon="0.70118">
        <ele>74.158813</ele>
        <time>2011-10-16T08:35:18Z</time>
      </trkpt>
      <trkpt lat="44.85179" lon="0.70097">
        <ele>76.08142</ele>
        <time>2011-10-16T08:35:24Z</time>
      </trkpt>
      <trkpt lat="44.85185" lon="0.70072">
        <ele>78.965454</ele>
        <time>2011-10-16T08:35:31Z</time>
      </trkpt>
      <trkpt lat="44.85188" lon="0.7006">
        <ele>80.40747</ele>
        <time>2011-10-16T08:35:35Z</time>
      </trkpt>
      <trkpt lat="44.85193" lon="0.70042">
        <ele>81.849365</ele>
        <time>2011-10-16T08:35:41Z</time>
      </trkpt>
      <trkpt lat="44.85195" lon="0.70034">
        <ele>82.810791</ele>
        <time>2011-10-16T08:35:44Z</time>
      </trkpt>
      <trkpt lat="44.85197" lon="0.70013">
        <ele>85.69458</ele>
        <time>2011-10-16T08:35:50Z</time>
      </trkpt>
      <trkpt lat="44.85198" lon="0.69997">
        <ele>86.656005</ele>
        <time>2011-10-16T08:35:55Z</time>
      </trkpt>
      <trkpt lat="44.85199" lon="0.69974">
        <ele>91.462524</ele>
        <time>2011-10-16T08:36:02Z</time>
      </trkpt>
      <trkpt lat="44.852" lon="0.69959">
        <ele>90.981933</ele>
        <time>2011-10-16T08:36:08Z</time>
      </trkpt>
      <trkpt lat="44.85201" lon="0.69957">
        <ele>95.307739</ele>
        <time>2011-10-16T08:36:17Z</time>
      </trkpt>
      <trkpt lat="44.85201" lon="0.69954">
        <ele>97.230468</ele>
        <time>2011-10-16T08:36:33Z</time>
      </trkpt>
      <trkpt lat="44.85204" lon="0.69948">
        <ele>96.749877</ele>
        <time>2011-10-16T08:36:46Z</time>
      </trkpt>
      <trkpt lat="44.85205" lon="0.69933">
        <ele>96.269287</ele>
        <time>2011-10-16T08:36:51Z</time>
      </trkpt>
      <trkpt lat="44.85207" lon="0.69919">
        <ele>96.269287</ele>
        <time>2011-10-16T08:36:56Z</time>
      </trkpt>
      <trkpt lat="44.85209" lon="0.69911">
        <ele>95.788452</ele>
        <time>2011-10-16T08:36:59Z</time>
      </trkpt>
      <trkpt lat="44.85209" lon="0.69894">
        <ele>93.865844</ele>
        <time>2011-10-16T08:37:05Z</time>
      </trkpt>
      <trkpt lat="44.8521" lon="0.69865">
        <ele>93.385131</ele>
        <time>2011-10-16T08:37:12Z</time>
      </trkpt>
      <trkpt lat="44.85212" lon="0.69844">
        <ele>93.865844</ele>
        <time>2011-10-16T08:37:17Z</time>
      </trkpt>
      <trkpt lat="44.85216" lon="0.69823">
        <ele>93.385131</ele>
        <time>2011-10-16T08:37:23Z</time>
      </trkpt>
      <trkpt lat="44.85224" lon="0.69807">
        <ele>92.42395</ele>
        <time>2011-10-16T08:37:29Z</time>
      </trkpt>
      <trkpt lat="44.85234" lon="0.69789">
        <ele>90.020629</ele>
        <time>2011-10-16T08:37:36Z</time>
      </trkpt>
      <trkpt lat="44.85241" lon="0.69771">
        <ele>88.098022</ele>
        <time>2011-10-16T08:37:42Z</time>
      </trkpt>
      <trkpt lat="44.85248" lon="0.69756">
        <ele>88.578735</ele>
        <time>2011-10-16T08:37:47Z</time>
      </trkpt>
      <trkpt lat="44.85259" lon="0.69736">
        <ele>89.059326</ele>
        <time>2011-10-16T08:37:54Z</time>
      </trkpt>
      <trkpt lat="44.85268" lon="0.69719">
        <ele>90.020629</ele>
        <time>2011-10-16T08:38:00Z</time>
      </trkpt>
      <trkpt lat="44.85276" lon="0.69696">
        <ele>91.462524</ele>
        <time>2011-10-16T08:38:07Z</time>
      </trkpt>
      <trkpt lat="44.85281" lon="0.69681">
        <ele>92.42395</ele>
        <time>2011-10-16T08:38:11Z</time>
      </trkpt>
      <trkpt lat="44.85284" lon="0.6966">
        <ele>93.385131</ele>
        <time>2011-10-16T08:38:17Z</time>
      </trkpt>
      <trkpt lat="44.85287" lon="0.69638">
        <ele>92.42395</ele>
        <time>2011-10-16T08:38:23Z</time>
      </trkpt>
      <trkpt lat="44.8529" lon="0.69619">
        <ele>91.943237</ele>
        <time>2011-10-16T08:38:29Z</time>
      </trkpt>
      <trkpt lat="44.85292" lon="0.69602">
        <ele>92.42395</ele>
        <time>2011-10-16T08:38:34Z</time>
      </trkpt>
      <trkpt lat="44.85295" lon="0.69578">
        <ele>93.385131</ele>
        <time>2011-10-16T08:38:41Z</time>
      </trkpt>
      <trkpt lat="44.85299" lon="0.69556">
        <ele>93.385131</ele>
        <time>2011-10-16T08:38:48Z</time>
      </trkpt>
      <trkpt lat="44.85302" lon="0.69537">
        <ele>95.788452</ele>
        <time>2011-10-16T08:38:54Z</time>
      </trkpt>
      <trkpt lat="44.85303" lon="0.6952">
        <ele>96.749877</ele>
        <time>2011-10-16T08:38:59Z</time>
      </trkpt>
      <trkpt lat="44.85306" lon="0.69497">
        <ele>97.230468</ele>
        <time>2011-10-16T08:39:07Z</time>
      </trkpt>
      <trkpt lat="44.85307" lon="0.6948">
        <ele>98.672485</ele>
        <time>2011-10-16T08:39:13Z</time>
      </trkpt>
      <trkpt lat="44.85308" lon="0.69477">
        <ele>99.153076</ele>
        <time>2011-10-16T08:39:14Z</time>
      </trkpt>
      <trkpt lat="44.85309" lon="0.69461">
        <ele>98.191894</ele>
        <time>2011-10-16T08:39:19Z</time>
      </trkpt>
      <trkpt lat="44.85314" lon="0.69437">
        <ele>98.672485</ele>
        <time>2011-10-16T08:39:26Z</time>
      </trkpt>
      <trkpt lat="44.85316" lon="0.6943">
        <ele>98.672485</ele>
        <time>2011-10-16T08:39:28Z</time>
      </trkpt>
      <trkpt lat="44.85321" lon="0.69411">
        <ele>101.07568</ele>
        <time>2011-10-16T08:39:34Z</time>
      </trkpt>
      <trkpt lat="44.85325" lon="0.69396">
        <ele>102.0371</ele>
        <time>2011-10-16T08:39:39Z</time>
      </trkpt>
      <trkpt lat="44.85328" lon="0.69378">
        <ele>103.95971</ele>
        <time>2011-10-16T08:39:44Z</time>
      </trkpt>
      <trkpt lat="44.85328" lon="0.69367">
        <ele>106.36303</ele>
        <time>2011-10-16T08:39:48Z</time>
      </trkpt>
      <trkpt lat="44.85328" lon="0.69363">
        <ele>110.20825</ele>
        <time>2011-10-16T08:40:01Z</time>
      </trkpt>
      <trkpt lat="44.85326" lon="0.6936">
        <ele>110.20825</ele>
        <time>2011-10-16T08:40:04Z</time>
      </trkpt>
      <trkpt lat="44.85314" lon="0.69349">
        <ele>111.65026</ele>
        <time>2011-10-16T08:40:11Z</time>
      </trkpt>
      <trkpt lat="44.85307" lon="0.6934">
        <ele>112.61157</ele>
        <time>2011-10-16T08:40:16Z</time>
      </trkpt>
      <trkpt lat="44.853" lon="0.69332">
        <ele>113.57299</ele>
        <time>2011-10-16T08:40:19Z</time>
      </trkpt>
      <trkpt lat="44.85295" lon="0.69315">
        <ele>115.01489</ele>
        <time>2011-10-16T08:40:25Z</time>
      </trkpt>
      <trkpt lat="44.85295" lon="0.69312">
        <ele>115.4956</ele>
        <time>2011-10-16T08:40:26Z</time>
      </trkpt>
      <trkpt lat="44.85292" lon="0.69302">
        <ele>115.4956</ele>
        <time>2011-10-16T08:40:30Z</time>
      </trkpt>
      <trkpt lat="44.85286" lon="0.69286">
        <ele>115.97619</ele>
        <time>2011-10-16T08:40:36Z</time>
      </trkpt>
      <trkpt lat="44.85279" lon="0.69273">
        <ele>118.37939</ele>
        <time>2011-10-16T08:40:41Z</time>
      </trkpt>
      <trkpt lat="44.85269" lon="0.69263">
        <ele>121.74414</ele>
        <time>2011-10-16T08:40:46Z</time>
      </trkpt>
      <trkpt lat="44.85259" lon="0.69248">
        <ele>123.66674</ele>
        <time>2011-10-16T08:40:52Z</time>
      </trkpt>
      <trkpt lat="44.85252" lon="0.69233">
        <ele>125.58935</ele>
        <time>2011-10-16T08:40:57Z</time>
      </trkpt>
      <trkpt lat="44.85246" lon="0.69218">
        <ele>126.06994</ele>
        <time>2011-10-16T08:41:02Z</time>
      </trkpt>
      <trkpt lat="44.85242" lon="0.69203">
        <ele>127.03137</ele>
        <time>2011-10-16T08:41:07Z</time>
      </trkpt>
      <trkpt lat="44.8524" lon="0.69192">
        <ele>127.51196</ele>
        <time>2011-10-16T08:41:13Z</time>
      </trkpt>
      <trkpt lat="44.8524" lon="0.69189">
        <ele>128.9541</ele>
        <time>2011-10-16T08:41:19Z</time>
      </trkpt>
      <trkpt lat="44.85241" lon="0.69186">
        <ele>131.83789</ele>
        <time>2011-10-16T08:41:28Z</time>
      </trkpt>
      <trkpt lat="44.85243" lon="0.69182">
        <ele>131.83789</ele>
        <time>2011-10-16T08:41:30Z</time>
      </trkpt>
      <trkpt lat="44.85246" lon="0.69174">
        <ele>130.8767</ele>
        <time>2011-10-16T08:41:33Z</time>
      </trkpt>
      <trkpt lat="44.85247" lon="0.69159">
        <ele>131.35729</ele>
        <time>2011-10-16T08:41:38Z</time>
      </trkpt>
      <trkpt lat="44.85249" lon="0.69143">
        <ele>132.79931</ele>
        <time>2011-10-16T08:41:43Z</time>
      </trkpt>
      <trkpt lat="44.85253" lon="0.69133">
        <ele>133.2799</ele>
        <time>2011-10-16T08:41:46Z</time>
      </trkpt>
      <trkpt lat="44.85252" lon="0.69113">
        <ele>134.24121</ele>
        <time>2011-10-16T08:41:52Z</time>
      </trkpt>
      <trkpt lat="44.85252" lon="0.69106">
        <ele>134.24121</ele>
        <time>2011-10-16T08:41:54Z</time>
      </trkpt>
      <trkpt lat="44.85255" lon="0.69086">
        <ele>132.3186</ele>
        <time>2011-10-16T08:42:01Z</time>
      </trkpt>
      <trkpt lat="44.8526" lon="0.69069">
        <ele>130.8767</ele>
        <time>2011-10-16T08:42:07Z</time>
      </trkpt>
      <trkpt lat="44.85261" lon="0.6906">
        <ele>130.39599</ele>
        <time>2011-10-16T08:42:10Z</time>
      </trkpt>
      <trkpt lat="44.85262" lon="0.69039">
        <ele>129.91528</ele>
        <time>2011-10-16T08:42:17Z</time>
      </trkpt>
      <trkpt lat="44.85261" lon="0.69017">
        <ele>129.91528</ele>
        <time>2011-10-16T08:42:24Z</time>
      </trkpt>
      <trkpt lat="44.85262" lon="0.69">
        <ele>129.91528</ele>
        <time>2011-10-16T08:42:29Z</time>
      </trkpt>
      <trkpt lat="44.85261" lon="0.68985">
        <ele>132.3186</ele>
        <time>2011-10-16T08:42:35Z</time>
      </trkpt>
      <trkpt lat="44.85257" lon="0.68969">
        <ele>132.79931</ele>
        <time>2011-10-16T08:42:40Z</time>
      </trkpt>
      <trkpt lat="44.85251" lon="0.68949">
        <ele>132.3186</ele>
        <time>2011-10-16T08:42:46Z</time>
      </trkpt>
      <trkpt lat="44.85243" lon="0.68942">
        <ele>132.3186</ele>
        <time>2011-10-16T08:42:51Z</time>
      </trkpt>
      <trkpt lat="44.85231" lon="0.68939">
        <ele>132.79931</ele>
        <time>2011-10-16T08:42:55Z</time>
      </trkpt>
      <trkpt lat="44.85219" lon="0.68932">
        <ele>134.24121</ele>
        <time>2011-10-16T08:43:00Z</time>
      </trkpt>
      <trkpt lat="44.85207" lon="0.68924">
        <ele>133.76049</ele>
        <time>2011-10-16T08:43:05Z</time>
      </trkpt>
      <trkpt lat="44.85194" lon="0.68918">
        <ele>135.20251</ele>
        <time>2011-10-16T08:43:09Z</time>
      </trkpt>
      <trkpt lat="44.85179" lon="0.6891">
        <ele>136.64465</ele>
        <time>2011-10-16T08:43:14Z</time>
      </trkpt>
      <trkpt lat="44.85168" lon="0.68901">
        <ele>136.64465</ele>
        <time>2011-10-16T08:43:18Z</time>
      </trkpt>
      <trkpt lat="44.85167" lon="0.68898">
        <ele>136.64465</ele>
        <time>2011-10-16T08:43:19Z</time>
      </trkpt>
      <trkpt lat="44.85155" lon="0.68888">
        <ele>136.16394</ele>
        <time>2011-10-16T08:43:24Z</time>
      </trkpt>
      <trkpt lat="44.85145" lon="0.6888">
        <ele>135.6831</ele>
        <time>2011-10-16T08:43:28Z</time>
      </trkpt>
      <trkpt lat="44.85141" lon="0.68877">
        <ele>135.20251</ele>
        <time>2011-10-16T08:43:30Z</time>
      </trkpt>
      <trkpt lat="44.85128" lon="0.68878">
        <ele>133.76049</ele>
        <time>2011-10-16T08:43:34Z</time>
      </trkpt>
      <trkpt lat="44.85115" lon="0.68881">
        <ele>132.79931</ele>
        <time>2011-10-16T08:43:38Z</time>
      </trkpt>
    </trkseg>
  </trk>
</gpx>